﻿<?xml version="1.0" encoding="UTF-8" standalone="no" ?>
<gpx xmlns="http://www.topografix.com/GPX/1/1" creator="CompeGPS" version="1.1" xmlns:xsi="http://www.w3.org/2001/XMLSchema-instance" xsi:schemaLocation="http://www.topografix.com/GPX/1/1 http://www.topografix.com/GPX/1/1/gpx.xsd http://www.garmin.com/xmlschemas/GpxExtensions/v3 http://www.garmin.com/xmlschemas/GpxExtensionsv3.xsd http://www.garmin.com/xmlschemas/TrackPointExtension/v1 http://www.garmin.com/xmlschemas/TrackPointExtensionv1.xsd" xmlns:gpxtpx="http://www.garmin.com/xmlschemas/TrackPointExtension/v1">
  <metadata>
    <link href="http://www.compegps.com">
      <text>CompeGPS TEAM, SL</text>
    </link>
    <time>2012-11-16T17:56:19Z</time>
    <bounds maxlat="42.951642" maxlon="0.721882" minlat="42.932874" minlon="0.690985"/>
  </metadata>
<wpt lat="42.932906" lon="0.696985">
<ele>710</ele>
<name>Bezins-Garraux</name>
</wpt>
<wpt lat="42.939790" lon="0.693374">
<ele>883</ele>
<name>Fin sentier - cote 883</name>
</wpt>
<wpt lat="42.945666" lon="0.690984">
<ele>1460</ele>
<name>Col de Teyech</name>
</wpt>
<wpt lat="42.951333" lon="0.693132">
<ele>1600</ele>
<name>Croupe NO du pic Saillant</name>
</wpt>
<wpt lat="42.948567" lon="0.696224">
<ele>1756</ele>
<name>Pic Saillant</name>
</wpt>
<wpt lat="42.950257" lon="0.698704">
<ele>1785</ele>
<name>Pic du Gar</name>
</wpt>
<wpt lat="42.949114" lon="0.713374">
<ele>1590</ele>
<name>Replat</name>
</wpt>
<wpt lat="42.940506" lon="0.721124">
<ele>1335</ele>
<name>Col de Caube</name>
</wpt>
<wpt lat="42.934664" lon="0.709912">
<ele>930</ele>
<name>Refuge de Plansous</name>
</wpt>
<wpt lat="42.936521" lon="0.706558">
<ele>860</ele>
<name>GR 86</name>
</wpt>
  <trk>
    <name>pic du gar</name>
    <trkseg>
      <trkpt lat="42.932906" lon="0.696985">
        <ele>733.1</ele>
        <time>2012-11-14T07:41:52Z</time>
        <name>Bezins-Garraux</name>
      </trkpt>
      <trkpt lat="42.932968" lon="0.696987">
        <ele>733.1</ele>
        <time>2012-11-14T07:47:34Z</time>
      </trkpt>
      <trkpt lat="42.933112" lon="0.697102">
        <ele>733.1</ele>
        <time>2012-11-14T07:47:52Z</time>
      </trkpt>
      <trkpt lat="42.933213" lon="0.697223">
        <ele>733.6</ele>
        <time>2012-11-14T07:48:14Z</time>
      </trkpt>
      <trkpt lat="42.933157" lon="0.697091">
        <ele>733.6</ele>
        <time>2012-11-14T07:48:31Z</time>
      </trkpt>
      <trkpt lat="42.933049" lon="0.697047">
        <ele>732.7</ele>
        <time>2012-11-14T07:48:39Z</time>
      </trkpt>
      <trkpt lat="42.933070" lon="0.697053">
        <ele>733.1</ele>
        <time>2012-11-14T07:48:49Z</time>
      </trkpt>
      <trkpt lat="42.933151" lon="0.697137">
        <ele>734.1</ele>
        <time>2012-11-14T07:48:56Z</time>
      </trkpt>
      <trkpt lat="42.933228" lon="0.697237">
        <ele>733.6</ele>
        <time>2012-11-14T07:49:06Z</time>
      </trkpt>
      <trkpt lat="42.933342" lon="0.697362">
        <ele>733.6</ele>
        <time>2012-11-14T07:49:21Z</time>
      </trkpt>
      <trkpt lat="42.933463" lon="0.697442">
        <ele>733.6</ele>
        <time>2012-11-14T07:49:31Z</time>
      </trkpt>
      <trkpt lat="42.933578" lon="0.697520">
        <ele>734.1</ele>
        <time>2012-11-14T07:49:43Z</time>
      </trkpt>
      <trkpt lat="42.933652" lon="0.697649">
        <ele>735.5</ele>
        <time>2012-11-14T07:49:58Z</time>
      </trkpt>
      <trkpt lat="42.933748" lon="0.697761">
        <ele>737.0</ele>
        <time>2012-11-14T07:50:50Z</time>
      </trkpt>
      <trkpt lat="42.933803" lon="0.697865">
        <ele>737.5</ele>
        <time>2012-11-14T07:51:11Z</time>
      </trkpt>
      <trkpt lat="42.933862" lon="0.697946">
        <ele>737.5</ele>
        <time>2012-11-14T07:51:20Z</time>
      </trkpt>
      <trkpt lat="42.933916" lon="0.698026">
        <ele>738.9</ele>
        <time>2012-11-14T07:51:29Z</time>
      </trkpt>
      <trkpt lat="42.933994" lon="0.698106">
        <ele>741.3</ele>
        <time>2012-11-14T07:51:41Z</time>
      </trkpt>
      <trkpt lat="42.934066" lon="0.698196">
        <ele>741.8</ele>
        <time>2012-11-14T07:51:53Z</time>
      </trkpt>
      <trkpt lat="42.934146" lon="0.698304">
        <ele>743.2</ele>
        <time>2012-11-14T07:52:04Z</time>
      </trkpt>
      <trkpt lat="42.934215" lon="0.698406">
        <ele>744.7</ele>
        <time>2012-11-14T07:52:15Z</time>
      </trkpt>
      <trkpt lat="42.934276" lon="0.698528">
        <ele>747.6</ele>
        <time>2012-11-14T07:52:28Z</time>
      </trkpt>
      <trkpt lat="42.934336" lon="0.698500">
        <ele>750.5</ele>
        <time>2012-11-14T07:52:46Z</time>
      </trkpt>
      <trkpt lat="42.934308" lon="0.698346">
        <ele>752.8</ele>
        <time>2012-11-14T07:53:05Z</time>
      </trkpt>
      <trkpt lat="42.934256" lon="0.698171">
        <ele>754.8</ele>
        <time>2012-11-14T07:53:24Z</time>
      </trkpt>
      <trkpt lat="42.934244" lon="0.697991">
        <ele>757.2</ele>
        <time>2012-11-14T07:53:41Z</time>
      </trkpt>
      <trkpt lat="42.934172" lon="0.697797">
        <ele>760.1</ele>
        <time>2012-11-14T07:54:00Z</time>
      </trkpt>
      <trkpt lat="42.934077" lon="0.697659">
        <ele>761.5</ele>
        <time>2012-11-14T07:55:35Z</time>
      </trkpt>
      <trkpt lat="42.934097" lon="0.697480">
        <ele>762.9</ele>
        <time>2012-11-14T07:55:50Z</time>
      </trkpt>
      <trkpt lat="42.934081" lon="0.697316">
        <ele>763.9</ele>
        <time>2012-11-14T07:56:03Z</time>
      </trkpt>
      <trkpt lat="42.934103" lon="0.697151">
        <ele>764.4</ele>
        <time>2012-11-14T07:56:16Z</time>
      </trkpt>
      <trkpt lat="42.934088" lon="0.697011">
        <ele>766.8</ele>
        <time>2012-11-14T07:56:28Z</time>
      </trkpt>
      <trkpt lat="42.934103" lon="0.696867">
        <ele>767.3</ele>
        <time>2012-11-14T07:56:40Z</time>
      </trkpt>
      <trkpt lat="42.934122" lon="0.696715">
        <ele>768.2</ele>
        <time>2012-11-14T07:56:52Z</time>
      </trkpt>
      <trkpt lat="42.934134" lon="0.696577">
        <ele>770.2</ele>
        <time>2012-11-14T07:57:04Z</time>
      </trkpt>
      <trkpt lat="42.934140" lon="0.696423">
        <ele>772.1</ele>
        <time>2012-11-14T07:57:18Z</time>
      </trkpt>
      <trkpt lat="42.934156" lon="0.696276">
        <ele>774.0</ele>
        <time>2012-11-14T07:57:33Z</time>
      </trkpt>
      <trkpt lat="42.934177" lon="0.696411">
        <ele>775.9</ele>
        <time>2012-11-14T07:57:49Z</time>
      </trkpt>
      <trkpt lat="42.934229" lon="0.696567">
        <ele>775.9</ele>
        <time>2012-11-14T07:58:01Z</time>
      </trkpt>
      <trkpt lat="42.934267" lon="0.696731">
        <ele>776.4</ele>
        <time>2012-11-14T07:58:13Z</time>
      </trkpt>
      <trkpt lat="42.934288" lon="0.696900">
        <ele>777.8</ele>
        <time>2012-11-14T07:58:26Z</time>
      </trkpt>
      <trkpt lat="42.934343" lon="0.697066">
        <ele>778.8</ele>
        <time>2012-11-14T07:58:40Z</time>
      </trkpt>
      <trkpt lat="42.934383" lon="0.697243">
        <ele>780.2</ele>
        <time>2012-11-14T07:58:54Z</time>
      </trkpt>
      <trkpt lat="42.934410" lon="0.697402">
        <ele>781.2</ele>
        <time>2012-11-14T07:59:07Z</time>
      </trkpt>
      <trkpt lat="42.934435" lon="0.697300">
        <ele>783.6</ele>
        <time>2012-11-14T07:59:23Z</time>
      </trkpt>
      <trkpt lat="42.934422" lon="0.697145">
        <ele>786.0</ele>
        <time>2012-11-14T07:59:38Z</time>
      </trkpt>
      <trkpt lat="42.934440" lon="0.696965">
        <ele>788.4</ele>
        <time>2012-11-14T07:59:56Z</time>
      </trkpt>
      <trkpt lat="42.934437" lon="0.696780">
        <ele>788.9</ele>
        <time>2012-11-14T08:00:13Z</time>
      </trkpt>
      <trkpt lat="42.934453" lon="0.696611">
        <ele>792.7</ele>
        <time>2012-11-14T08:00:31Z</time>
      </trkpt>
      <trkpt lat="42.934480" lon="0.696435">
        <ele>793.2</ele>
        <time>2012-11-14T08:00:52Z</time>
      </trkpt>
      <trkpt lat="42.934487" lon="0.696285">
        <ele>798.0</ele>
        <time>2012-11-14T08:01:16Z</time>
      </trkpt>
      <trkpt lat="42.934504" lon="0.696250">
        <ele>799.5</ele>
        <time>2012-11-14T08:01:19Z</time>
      </trkpt>
      <trkpt lat="42.934592" lon="0.696139">
        <ele>801.4</ele>
        <time>2012-11-14T08:01:37Z</time>
      </trkpt>
      <trkpt lat="42.935634" lon="0.694006">
        <ele>834.1</ele>
        <time>2012-11-14T08:06:42Z</time>
      </trkpt>
      <trkpt lat="42.935749" lon="0.693934">
        <ele>836.0</ele>
        <time>2012-11-14T08:06:59Z</time>
      </trkpt>
      <trkpt lat="42.935866" lon="0.693879">
        <ele>838.4</ele>
        <time>2012-11-14T08:07:16Z</time>
      </trkpt>
      <trkpt lat="42.935969" lon="0.693797">
        <ele>840.8</ele>
        <time>2012-11-14T08:07:32Z</time>
      </trkpt>
      <trkpt lat="42.936079" lon="0.693755">
        <ele>842.7</ele>
        <time>2012-11-14T08:07:48Z</time>
      </trkpt>
      <trkpt lat="42.936195" lon="0.693745">
        <ele>844.2</ele>
        <time>2012-11-14T08:08:05Z</time>
      </trkpt>
      <trkpt lat="42.936297" lon="0.693715">
        <ele>846.1</ele>
        <time>2012-11-14T08:08:22Z</time>
      </trkpt>
      <trkpt lat="42.936402" lon="0.693676">
        <ele>848.0</ele>
        <time>2012-11-14T08:08:36Z</time>
      </trkpt>
      <trkpt lat="42.936514" lon="0.693672">
        <ele>849.9</ele>
        <time>2012-11-14T08:08:53Z</time>
      </trkpt>
      <trkpt lat="42.936613" lon="0.693643">
        <ele>851.9</ele>
        <time>2012-11-14T08:09:08Z</time>
      </trkpt>
      <trkpt lat="42.936739" lon="0.693628">
        <ele>852.8</ele>
        <time>2012-11-14T08:09:27Z</time>
      </trkpt>
      <trkpt lat="42.936838" lon="0.693601">
        <ele>855.2</ele>
        <time>2012-11-14T08:09:42Z</time>
      </trkpt>
      <trkpt lat="42.936963" lon="0.693579">
        <ele>857.6</ele>
        <time>2012-11-14T08:10:02Z</time>
      </trkpt>
      <trkpt lat="42.937073" lon="0.693591">
        <ele>859.6</ele>
        <time>2012-11-14T08:10:16Z</time>
      </trkpt>
      <trkpt lat="42.937176" lon="0.693579">
        <ele>860.5</ele>
        <time>2012-11-14T08:10:30Z</time>
      </trkpt>
      <trkpt lat="42.937301" lon="0.693547">
        <ele>862.4</ele>
        <time>2012-11-14T08:10:48Z</time>
      </trkpt>
      <trkpt lat="42.937408" lon="0.693528">
        <ele>864.8</ele>
        <time>2012-11-14T08:11:03Z</time>
      </trkpt>
      <trkpt lat="42.937520" lon="0.693459">
        <ele>866.3</ele>
        <time>2012-11-14T08:11:21Z</time>
      </trkpt>
      <trkpt lat="42.937634" lon="0.693298">
        <ele>867.2</ele>
        <time>2012-11-14T08:11:38Z</time>
      </trkpt>
      <trkpt lat="42.937735" lon="0.693331">
        <ele>869.2</ele>
        <time>2012-11-14T08:11:53Z</time>
      </trkpt>
      <trkpt lat="42.937863" lon="0.693358">
        <ele>871.6</ele>
        <time>2012-11-14T08:13:38Z</time>
      </trkpt>
      <trkpt lat="42.937922" lon="0.693416">
        <ele>874.0</ele>
        <time>2012-11-14T08:14:22Z</time>
      </trkpt>
      <trkpt lat="42.938084" lon="0.693609">
        <ele>876.4</ele>
        <time>2012-11-14T08:14:44Z</time>
      </trkpt>
      <trkpt lat="42.938199" lon="0.693668">
        <ele>877.8</ele>
        <time>2012-11-14T08:14:58Z</time>
      </trkpt>
      <trkpt lat="42.938314" lon="0.693602">
        <ele>879.7</ele>
        <time>2012-11-14T08:15:14Z</time>
      </trkpt>
      <trkpt lat="42.938419" lon="0.693510">
        <ele>882.2</ele>
        <time>2012-11-14T08:15:31Z</time>
      </trkpt>
      <trkpt lat="42.938541" lon="0.693456">
        <ele>883.6</ele>
        <time>2012-11-14T08:15:46Z</time>
      </trkpt>
      <trkpt lat="42.938655" lon="0.693471">
        <ele>885.0</ele>
        <time>2012-11-14T08:15:59Z</time>
      </trkpt>
      <trkpt lat="42.938785" lon="0.693459">
        <ele>887.0</ele>
        <time>2012-11-14T08:16:17Z</time>
      </trkpt>
      <trkpt lat="42.938897" lon="0.693480">
        <ele>888.9</ele>
        <time>2012-11-14T08:16:31Z</time>
      </trkpt>
      <trkpt lat="42.938979" lon="0.693545">
        <ele>890.3</ele>
        <time>2012-11-14T08:16:47Z</time>
      </trkpt>
      <trkpt lat="42.939090" lon="0.693581">
        <ele>892.7</ele>
        <time>2012-11-14T08:17:03Z</time>
      </trkpt>
      <trkpt lat="42.939180" lon="0.693604">
        <ele>893.2</ele>
        <time>2012-11-14T08:17:16Z</time>
      </trkpt>
      <trkpt lat="42.939296" lon="0.693612">
        <ele>893.2</ele>
        <time>2012-11-14T08:17:29Z</time>
      </trkpt>
      <trkpt lat="42.939313" lon="0.693575">
        <ele>894.6</ele>
        <time>2012-11-14T08:17:59Z</time>
      </trkpt>
      <trkpt lat="42.939435" lon="0.693533">
        <ele>896.6</ele>
        <time>2012-11-14T08:18:15Z</time>
      </trkpt>
      <trkpt lat="42.939571" lon="0.693527">
        <ele>899.0</ele>
        <time>2012-11-14T08:18:32Z</time>
      </trkpt>
      <trkpt lat="42.939682" lon="0.693499">
        <ele>899.9</ele>
        <time>2012-11-14T08:18:48Z</time>
      </trkpt>
      <trkpt lat="42.939790" lon="0.693374">
        <ele>902.3</ele>
        <time>2012-11-14T08:19:07Z</time>
        <name>Fin sentier - cote 883</name>
      </trkpt>
      <trkpt lat="42.939782" lon="0.693640">
        <ele>906.2</ele>
        <time>2012-11-14T08:19:40Z</time>
      </trkpt>
      <trkpt lat="42.939658" lon="0.693637">
        <ele>908.6</ele>
        <time>2012-11-14T08:20:04Z</time>
      </trkpt>
      <trkpt lat="42.939601" lon="0.693865">
        <ele>910.5</ele>
        <time>2012-11-14T08:20:28Z</time>
      </trkpt>
      <trkpt lat="42.939448" lon="0.693987">
        <ele>912.9</ele>
        <time>2012-11-14T08:20:52Z</time>
      </trkpt>
      <trkpt lat="42.939334" lon="0.694076">
        <ele>914.3</ele>
        <time>2012-11-14T08:21:09Z</time>
      </trkpt>
      <trkpt lat="42.939142" lon="0.694170">
        <ele>917.7</ele>
        <time>2012-11-14T08:21:39Z</time>
      </trkpt>
      <trkpt lat="42.938975" lon="0.694265">
        <ele>920.1</ele>
        <time>2012-11-14T08:22:01Z</time>
      </trkpt>
      <trkpt lat="42.938915" lon="0.694487">
        <ele>922.5</ele>
        <time>2012-11-14T08:22:24Z</time>
      </trkpt>
      <trkpt lat="42.938789" lon="0.694633">
        <ele>925.4</ele>
        <time>2012-11-14T08:22:53Z</time>
      </trkpt>
      <trkpt lat="42.938650" lon="0.694586">
        <ele>927.3</ele>
        <time>2012-11-14T08:23:10Z</time>
      </trkpt>
      <trkpt lat="42.938515" lon="0.694635">
        <ele>930.2</ele>
        <time>2012-11-14T08:23:33Z</time>
      </trkpt>
      <trkpt lat="42.938378" lon="0.694680">
        <ele>932.1</ele>
        <time>2012-11-14T08:23:53Z</time>
      </trkpt>
      <trkpt lat="42.938232" lon="0.694698">
        <ele>935.5</ele>
        <time>2012-11-14T08:24:19Z</time>
      </trkpt>
      <trkpt lat="42.938081" lon="0.694679">
        <ele>936.9</ele>
        <time>2012-11-14T08:24:39Z</time>
      </trkpt>
      <trkpt lat="42.937935" lon="0.694669">
        <ele>939.3</ele>
        <time>2012-11-14T08:25:04Z</time>
      </trkpt>
      <trkpt lat="42.937714" lon="0.694625">
        <ele>942.7</ele>
        <time>2012-11-14T08:25:33Z</time>
      </trkpt>
      <trkpt lat="42.937578" lon="0.694661">
        <ele>945.1</ele>
        <time>2012-11-14T08:25:54Z</time>
      </trkpt>
      <trkpt lat="42.937445" lon="0.694809">
        <ele>948.0</ele>
        <time>2012-11-14T08:26:16Z</time>
      </trkpt>
      <trkpt lat="42.937307" lon="0.694918">
        <ele>950.9</ele>
        <time>2012-11-14T08:26:42Z</time>
      </trkpt>
      <trkpt lat="42.937447" lon="0.694910">
        <ele>952.8</ele>
        <time>2012-11-14T08:27:06Z</time>
      </trkpt>
      <trkpt lat="42.937611" lon="0.694911">
        <ele>955.2</ele>
        <time>2012-11-14T08:27:31Z</time>
      </trkpt>
      <trkpt lat="42.937769" lon="0.694918">
        <ele>957.1</ele>
        <time>2012-11-14T08:27:52Z</time>
      </trkpt>
      <trkpt lat="42.937894" lon="0.695023">
        <ele>960.0</ele>
        <time>2012-11-14T08:28:14Z</time>
      </trkpt>
      <trkpt lat="42.938014" lon="0.695188">
        <ele>962.9</ele>
        <time>2012-11-14T08:28:41Z</time>
      </trkpt>
      <trkpt lat="42.938171" lon="0.695291">
        <ele>965.3</ele>
        <time>2012-11-14T08:29:05Z</time>
      </trkpt>
      <trkpt lat="42.938347" lon="0.695438">
        <ele>968.7</ele>
        <time>2012-11-14T08:29:33Z</time>
      </trkpt>
      <trkpt lat="42.938446" lon="0.695518">
        <ele>970.6</ele>
        <time>2012-11-14T08:29:50Z</time>
      </trkpt>
      <trkpt lat="42.938557" lon="0.695577">
        <ele>972.0</ele>
        <time>2012-11-14T08:30:07Z</time>
      </trkpt>
      <trkpt lat="42.938697" lon="0.695596">
        <ele>974.9</ele>
        <time>2012-11-14T08:30:27Z</time>
      </trkpt>
      <trkpt lat="42.938843" lon="0.695694">
        <ele>977.3</ele>
        <time>2012-11-14T08:30:46Z</time>
      </trkpt>
      <trkpt lat="42.938851" lon="0.695752">
        <ele>980.2</ele>
        <time>2012-11-14T08:31:06Z</time>
      </trkpt>
      <trkpt lat="42.938756" lon="0.695821">
        <ele>981.2</ele>
        <time>2012-11-14T08:31:22Z</time>
      </trkpt>
      <trkpt lat="42.938645" lon="0.695887">
        <ele>983.1</ele>
        <time>2012-11-14T08:31:43Z</time>
      </trkpt>
      <trkpt lat="42.938479" lon="0.695874">
        <ele>985.0</ele>
        <time>2012-11-14T08:32:05Z</time>
      </trkpt>
      <trkpt lat="42.938334" lon="0.695928">
        <ele>988.4</ele>
        <time>2012-11-14T08:32:27Z</time>
      </trkpt>
      <trkpt lat="42.938170" lon="0.695917">
        <ele>989.8</ele>
        <time>2012-11-14T08:32:49Z</time>
      </trkpt>
      <trkpt lat="42.938043" lon="0.695926">
        <ele>992.7</ele>
        <time>2012-11-14T08:33:08Z</time>
      </trkpt>
      <trkpt lat="42.937831" lon="0.695837">
        <ele>994.6</ele>
        <time>2012-11-14T08:33:26Z</time>
      </trkpt>
      <trkpt lat="42.937682" lon="0.695806">
        <ele>996.1</ele>
        <time>2012-11-14T08:33:46Z</time>
      </trkpt>
      <trkpt lat="42.937726" lon="0.695862">
        <ele>997.5</ele>
        <time>2012-11-14T08:34:34Z</time>
      </trkpt>
      <trkpt lat="42.937880" lon="0.695994">
        <ele>1000.4</ele>
        <time>2012-11-14T08:34:48Z</time>
      </trkpt>
      <trkpt lat="42.937996" lon="0.696058">
        <ele>1002.8</ele>
        <time>2012-11-14T08:34:58Z</time>
      </trkpt>
      <trkpt lat="42.938110" lon="0.696125">
        <ele>1004.7</ele>
        <time>2012-11-14T08:35:08Z</time>
      </trkpt>
      <trkpt lat="42.938230" lon="0.696234">
        <ele>1006.2</ele>
        <time>2012-11-14T08:35:27Z</time>
      </trkpt>
      <trkpt lat="42.938342" lon="0.696311">
        <ele>1008.1</ele>
        <time>2012-11-14T08:35:46Z</time>
      </trkpt>
      <trkpt lat="42.938476" lon="0.696372">
        <ele>1011.4</ele>
        <time>2012-11-14T08:36:06Z</time>
      </trkpt>
      <trkpt lat="42.938609" lon="0.696434">
        <ele>1012.9</ele>
        <time>2012-11-14T08:36:27Z</time>
      </trkpt>
      <trkpt lat="42.938737" lon="0.696496">
        <ele>1015.3</ele>
        <time>2012-11-14T08:36:47Z</time>
      </trkpt>
      <trkpt lat="42.938884" lon="0.696555">
        <ele>1017.2</ele>
        <time>2012-11-14T08:37:09Z</time>
      </trkpt>
      <trkpt lat="42.939009" lon="0.696572">
        <ele>1019.6</ele>
        <time>2012-11-14T08:37:28Z</time>
      </trkpt>
      <trkpt lat="42.938963" lon="0.696643">
        <ele>1022.5</ele>
        <time>2012-11-14T08:37:50Z</time>
      </trkpt>
      <trkpt lat="42.938832" lon="0.696721">
        <ele>1024.9</ele>
        <time>2012-11-14T08:38:12Z</time>
      </trkpt>
      <trkpt lat="42.938699" lon="0.696799">
        <ele>1026.8</ele>
        <time>2012-11-14T08:38:36Z</time>
      </trkpt>
      <trkpt lat="42.938432" lon="0.696744">
        <ele>1030.7</ele>
        <time>2012-11-14T08:39:02Z</time>
      </trkpt>
      <trkpt lat="42.938276" lon="0.696677">
        <ele>1033.1</ele>
        <time>2012-11-14T08:39:27Z</time>
      </trkpt>
      <trkpt lat="42.938144" lon="0.696671">
        <ele>1035.0</ele>
        <time>2012-11-14T08:39:47Z</time>
      </trkpt>
      <trkpt lat="42.937977" lon="0.696711">
        <ele>1037.9</ele>
        <time>2012-11-14T08:40:05Z</time>
      </trkpt>
      <trkpt lat="42.937959" lon="0.696851">
        <ele>1038.4</ele>
        <time>2012-11-14T08:40:25Z</time>
      </trkpt>
      <trkpt lat="42.938022" lon="0.697029">
        <ele>1040.3</ele>
        <time>2012-11-14T08:40:44Z</time>
      </trkpt>
      <trkpt lat="42.938172" lon="0.697113">
        <ele>1043.7</ele>
        <time>2012-11-14T08:41:05Z</time>
      </trkpt>
      <trkpt lat="42.938321" lon="0.697110">
        <ele>1045.1</ele>
        <time>2012-11-14T08:41:21Z</time>
      </trkpt>
      <trkpt lat="42.938416" lon="0.697111">
        <ele>1048.4</ele>
        <time>2012-11-14T08:41:42Z</time>
      </trkpt>
      <trkpt lat="42.938590" lon="0.697096">
        <ele>1051.8</ele>
        <time>2012-11-14T08:42:14Z</time>
      </trkpt>
      <trkpt lat="42.938721" lon="0.697105">
        <ele>1053.7</ele>
        <time>2012-11-14T08:42:54Z</time>
      </trkpt>
      <trkpt lat="42.938813" lon="0.697142">
        <ele>1056.2</ele>
        <time>2012-11-14T08:43:09Z</time>
      </trkpt>
      <trkpt lat="42.938912" lon="0.697213">
        <ele>1059.0</ele>
        <time>2012-11-14T08:43:26Z</time>
      </trkpt>
      <trkpt lat="42.939051" lon="0.697222">
        <ele>1061.9</ele>
        <time>2012-11-14T08:43:47Z</time>
      </trkpt>
      <trkpt lat="42.939139" lon="0.697246">
        <ele>1063.8</ele>
        <time>2012-11-14T08:44:08Z</time>
      </trkpt>
      <trkpt lat="42.939252" lon="0.697280">
        <ele>1066.2</ele>
        <time>2012-11-14T08:44:44Z</time>
      </trkpt>
      <trkpt lat="42.939363" lon="0.697289">
        <ele>1068.6</ele>
        <time>2012-11-14T08:45:07Z</time>
      </trkpt>
      <trkpt lat="42.939484" lon="0.697272">
        <ele>1071.5</ele>
        <time>2012-11-14T08:45:26Z</time>
      </trkpt>
      <trkpt lat="42.939611" lon="0.697224">
        <ele>1073.4</ele>
        <time>2012-11-14T08:45:45Z</time>
      </trkpt>
      <trkpt lat="42.939705" lon="0.697235">
        <ele>1075.8</ele>
        <time>2012-11-14T08:46:09Z</time>
      </trkpt>
      <trkpt lat="42.939738" lon="0.697257">
        <ele>1078.3</ele>
        <time>2012-11-14T08:47:31Z</time>
      </trkpt>
      <trkpt lat="42.939673" lon="0.697293">
        <ele>1078.7</ele>
        <time>2012-11-14T08:50:07Z</time>
      </trkpt>
      <trkpt lat="42.939523" lon="0.697426">
        <ele>1081.6</ele>
        <time>2012-11-14T08:50:32Z</time>
      </trkpt>
      <trkpt lat="42.939424" lon="0.697512">
        <ele>1083.1</ele>
        <time>2012-11-14T08:50:47Z</time>
      </trkpt>
      <trkpt lat="42.939330" lon="0.697570">
        <ele>1084.5</ele>
        <time>2012-11-14T08:51:04Z</time>
      </trkpt>
      <trkpt lat="42.939344" lon="0.697655">
        <ele>1086.9</ele>
        <time>2012-11-14T08:51:24Z</time>
      </trkpt>
      <trkpt lat="42.939443" lon="0.697688">
        <ele>1087.9</ele>
        <time>2012-11-14T08:51:42Z</time>
      </trkpt>
      <trkpt lat="42.939560" lon="0.697787">
        <ele>1090.3</ele>
        <time>2012-11-14T08:51:59Z</time>
      </trkpt>
      <trkpt lat="42.939677" lon="0.697896">
        <ele>1092.7</ele>
        <time>2012-11-14T08:52:18Z</time>
      </trkpt>
      <trkpt lat="42.939837" lon="0.697913">
        <ele>1095.6</ele>
        <time>2012-11-14T08:52:45Z</time>
      </trkpt>
      <trkpt lat="42.939898" lon="0.697860">
        <ele>1100.4</ele>
        <time>2012-11-14T08:53:23Z</time>
      </trkpt>
      <trkpt lat="42.939820" lon="0.697744">
        <ele>1101.8</ele>
        <time>2012-11-14T08:53:45Z</time>
      </trkpt>
      <trkpt lat="42.939925" lon="0.697747">
        <ele>1103.2</ele>
        <time>2012-11-14T08:54:01Z</time>
      </trkpt>
      <trkpt lat="42.940016" lon="0.697652">
        <ele>1104.2</ele>
        <time>2012-11-14T08:54:51Z</time>
      </trkpt>
      <trkpt lat="42.940120" lon="0.697657">
        <ele>1105.7</ele>
        <time>2012-11-14T08:55:05Z</time>
      </trkpt>
      <trkpt lat="42.940200" lon="0.697653">
        <ele>1107.1</ele>
        <time>2012-11-14T08:55:39Z</time>
      </trkpt>
      <trkpt lat="42.940308" lon="0.697628">
        <ele>1108.1</ele>
        <time>2012-11-14T08:55:51Z</time>
      </trkpt>
      <trkpt lat="42.940424" lon="0.697698">
        <ele>1109.5</ele>
        <time>2012-11-14T08:56:05Z</time>
      </trkpt>
      <trkpt lat="42.940569" lon="0.697683">
        <ele>1111.4</ele>
        <time>2012-11-14T08:56:20Z</time>
      </trkpt>
      <trkpt lat="42.940704" lon="0.697689">
        <ele>1113.8</ele>
        <time>2012-11-14T08:56:37Z</time>
      </trkpt>
      <trkpt lat="42.940879" lon="0.697726">
        <ele>1116.2</ele>
        <time>2012-11-14T08:57:05Z</time>
      </trkpt>
      <trkpt lat="42.941053" lon="0.697672">
        <ele>1118.6</ele>
        <time>2012-11-14T08:57:40Z</time>
      </trkpt>
      <trkpt lat="42.941188" lon="0.697643">
        <ele>1121.5</ele>
        <time>2012-11-14T08:57:58Z</time>
      </trkpt>
      <trkpt lat="42.941352" lon="0.697635">
        <ele>1123.9</ele>
        <time>2012-11-14T08:58:23Z</time>
      </trkpt>
      <trkpt lat="42.941472" lon="0.697602">
        <ele>1126.3</ele>
        <time>2012-11-14T08:58:42Z</time>
      </trkpt>
      <trkpt lat="42.941366" lon="0.697544">
        <ele>1128.7</ele>
        <time>2012-11-14T08:58:58Z</time>
      </trkpt>
      <trkpt lat="42.941216" lon="0.697447">
        <ele>1130.2</ele>
        <time>2012-11-14T08:59:17Z</time>
      </trkpt>
      <trkpt lat="42.941320" lon="0.697414">
        <ele>1133.1</ele>
        <time>2012-11-14T08:59:40Z</time>
      </trkpt>
      <trkpt lat="42.941432" lon="0.697422">
        <ele>1135.0</ele>
        <time>2012-11-14T08:59:58Z</time>
      </trkpt>
      <trkpt lat="42.941603" lon="0.697518">
        <ele>1137.4</ele>
        <time>2012-11-14T09:00:19Z</time>
      </trkpt>
      <trkpt lat="42.941701" lon="0.697674">
        <ele>1139.3</ele>
        <time>2012-11-14T09:00:38Z</time>
      </trkpt>
      <trkpt lat="42.941769" lon="0.697779">
        <ele>1141.2</ele>
        <time>2012-11-14T09:00:54Z</time>
      </trkpt>
      <trkpt lat="42.941903" lon="0.697789">
        <ele>1143.6</ele>
        <time>2012-11-14T09:01:18Z</time>
      </trkpt>
      <trkpt lat="42.942076" lon="0.697828">
        <ele>1146.5</ele>
        <time>2012-11-14T09:01:40Z</time>
      </trkpt>
      <trkpt lat="42.942235" lon="0.697907">
        <ele>1148.4</ele>
        <time>2012-11-14T09:02:05Z</time>
      </trkpt>
      <trkpt lat="42.942146" lon="0.697769">
        <ele>1151.8</ele>
        <time>2012-11-14T09:02:26Z</time>
      </trkpt>
      <trkpt lat="42.942041" lon="0.697602">
        <ele>1153.7</ele>
        <time>2012-11-14T09:02:46Z</time>
      </trkpt>
      <trkpt lat="42.942059" lon="0.697564">
        <ele>1156.6</ele>
        <time>2012-11-14T09:03:11Z</time>
      </trkpt>
      <trkpt lat="42.942169" lon="0.697671">
        <ele>1158.1</ele>
        <time>2012-11-14T09:03:27Z</time>
      </trkpt>
      <trkpt lat="42.942137" lon="0.697565">
        <ele>1160.4</ele>
        <time>2012-11-14T09:03:46Z</time>
      </trkpt>
      <trkpt lat="42.942078" lon="0.697463">
        <ele>1162.8</ele>
        <time>2012-11-14T09:04:04Z</time>
      </trkpt>
      <trkpt lat="42.942190" lon="0.697596">
        <ele>1164.8</ele>
        <time>2012-11-14T09:04:24Z</time>
      </trkpt>
      <trkpt lat="42.942408" lon="0.697730">
        <ele>1168.1</ele>
        <time>2012-11-14T09:05:05Z</time>
      </trkpt>
      <trkpt lat="42.942442" lon="0.697721">
        <ele>1172.5</ele>
        <time>2012-11-14T09:05:30Z</time>
      </trkpt>
      <trkpt lat="42.942373" lon="0.697678">
        <ele>1173.9</ele>
        <time>2012-11-14T09:06:03Z</time>
      </trkpt>
      <trkpt lat="42.942286" lon="0.697527">
        <ele>1175.8</ele>
        <time>2012-11-14T09:06:19Z</time>
      </trkpt>
      <trkpt lat="42.942397" lon="0.697548">
        <ele>1177.3</ele>
        <time>2012-11-14T09:06:34Z</time>
      </trkpt>
      <trkpt lat="42.942348" lon="0.697473">
        <ele>1180.2</ele>
        <time>2012-11-14T09:06:59Z</time>
      </trkpt>
      <trkpt lat="42.942268" lon="0.697355">
        <ele>1181.6</ele>
        <time>2012-11-14T09:07:21Z</time>
      </trkpt>
      <trkpt lat="42.942169" lon="0.697267">
        <ele>1183.5</ele>
        <time>2012-11-14T09:07:38Z</time>
      </trkpt>
      <trkpt lat="42.942157" lon="0.697125">
        <ele>1185.9</ele>
        <time>2012-11-14T09:08:04Z</time>
      </trkpt>
      <trkpt lat="42.942246" lon="0.697002">
        <ele>1187.4</ele>
        <time>2012-11-14T09:08:24Z</time>
      </trkpt>
      <trkpt lat="42.942328" lon="0.696878">
        <ele>1187.8</ele>
        <time>2012-11-14T09:08:42Z</time>
      </trkpt>
      <trkpt lat="42.942413" lon="0.696778">
        <ele>1189.3</ele>
        <time>2012-11-14T09:09:00Z</time>
      </trkpt>
      <trkpt lat="42.942478" lon="0.696625">
        <ele>1192.2</ele>
        <time>2012-11-14T09:09:28Z</time>
      </trkpt>
      <trkpt lat="42.942527" lon="0.696452">
        <ele>1194.1</ele>
        <time>2012-11-14T09:09:50Z</time>
      </trkpt>
      <trkpt lat="42.942501" lon="0.696232">
        <ele>1196.0</ele>
        <time>2012-11-14T09:10:20Z</time>
      </trkpt>
      <trkpt lat="42.942576" lon="0.696325">
        <ele>1198.4</ele>
        <time>2012-11-14T09:10:46Z</time>
      </trkpt>
      <trkpt lat="42.942647" lon="0.696491">
        <ele>1199.9</ele>
        <time>2012-11-14T09:11:04Z</time>
      </trkpt>
      <trkpt lat="42.942629" lon="0.696691">
        <ele>1202.3</ele>
        <time>2012-11-14T09:11:30Z</time>
      </trkpt>
      <trkpt lat="42.942644" lon="0.696893">
        <ele>1204.7</ele>
        <time>2012-11-14T09:11:53Z</time>
      </trkpt>
      <trkpt lat="42.942674" lon="0.696698">
        <ele>1206.6</ele>
        <time>2012-11-14T09:12:34Z</time>
      </trkpt>
      <trkpt lat="42.942762" lon="0.696558">
        <ele>1209.0</ele>
        <time>2012-11-14T09:12:54Z</time>
      </trkpt>
      <trkpt lat="42.942792" lon="0.696672">
        <ele>1211.4</ele>
        <time>2012-11-14T09:13:22Z</time>
      </trkpt>
      <trkpt lat="42.942778" lon="0.696898">
        <ele>1213.8</ele>
        <time>2012-11-14T09:13:45Z</time>
      </trkpt>
      <trkpt lat="42.942800" lon="0.697094">
        <ele>1216.2</ele>
        <time>2012-11-14T09:14:15Z</time>
      </trkpt>
      <trkpt lat="42.942857" lon="0.697167">
        <ele>1217.7</ele>
        <time>2012-11-14T09:14:35Z</time>
      </trkpt>
      <trkpt lat="42.942820" lon="0.697047">
        <ele>1219.1</ele>
        <time>2012-11-14T09:14:59Z</time>
      </trkpt>
      <trkpt lat="42.942866" lon="0.696933">
        <ele>1221.0</ele>
        <time>2012-11-14T09:15:17Z</time>
      </trkpt>
      <trkpt lat="42.942919" lon="0.696778">
        <ele>1222.9</ele>
        <time>2012-11-14T09:15:36Z</time>
      </trkpt>
      <trkpt lat="42.942972" lon="0.696620">
        <ele>1223.9</ele>
        <time>2012-11-14T09:15:56Z</time>
      </trkpt>
      <trkpt lat="42.943013" lon="0.696454">
        <ele>1226.3</ele>
        <time>2012-11-14T09:16:16Z</time>
      </trkpt>
      <trkpt lat="42.943044" lon="0.696266">
        <ele>1227.7</ele>
        <time>2012-11-14T09:16:38Z</time>
      </trkpt>
      <trkpt lat="42.943145" lon="0.696154">
        <ele>1229.7</ele>
        <time>2012-11-14T09:16:58Z</time>
      </trkpt>
      <trkpt lat="42.943258" lon="0.696081">
        <ele>1231.1</ele>
        <time>2012-11-14T09:17:26Z</time>
      </trkpt>
      <trkpt lat="42.943349" lon="0.695967">
        <ele>1232.6</ele>
        <time>2012-11-14T09:17:41Z</time>
      </trkpt>
      <trkpt lat="42.943413" lon="0.695864">
        <ele>1234.0</ele>
        <time>2012-11-14T09:17:55Z</time>
      </trkpt>
      <trkpt lat="42.943495" lon="0.695769">
        <ele>1235.4</ele>
        <time>2012-11-14T09:18:10Z</time>
      </trkpt>
      <trkpt lat="42.943572" lon="0.695637">
        <ele>1237.8</ele>
        <time>2012-11-14T09:18:34Z</time>
      </trkpt>
      <trkpt lat="42.943641" lon="0.695529">
        <ele>1238.8</ele>
        <time>2012-11-14T09:18:49Z</time>
      </trkpt>
      <trkpt lat="42.943711" lon="0.695429">
        <ele>1240.2</ele>
        <time>2012-11-14T09:19:04Z</time>
      </trkpt>
      <trkpt lat="42.943811" lon="0.695353">
        <ele>1241.2</ele>
        <time>2012-11-14T09:19:39Z</time>
      </trkpt>
      <trkpt lat="42.943885" lon="0.695214">
        <ele>1244.6</ele>
        <time>2012-11-14T09:19:57Z</time>
      </trkpt>
      <trkpt lat="42.943987" lon="0.695086">
        <ele>1247.0</ele>
        <time>2012-11-14T09:20:17Z</time>
      </trkpt>
      <trkpt lat="42.944020" lon="0.694908">
        <ele>1249.4</ele>
        <time>2012-11-14T09:20:37Z</time>
      </trkpt>
      <trkpt lat="42.944064" lon="0.694894">
        <ele>1255.1</ele>
        <time>2012-11-14T09:21:23Z</time>
      </trkpt>
      <trkpt lat="42.944099" lon="0.694999">
        <ele>1256.1</ele>
        <time>2012-11-14T09:21:55Z</time>
      </trkpt>
      <trkpt lat="42.944141" lon="0.694966">
        <ele>1258.5</ele>
        <time>2012-11-14T09:22:11Z</time>
      </trkpt>
      <trkpt lat="42.944152" lon="0.694838">
        <ele>1259.5</ele>
        <time>2012-11-14T09:22:44Z</time>
      </trkpt>
      <trkpt lat="42.944180" lon="0.694657">
        <ele>1261.9</ele>
        <time>2012-11-14T09:23:02Z</time>
      </trkpt>
      <trkpt lat="42.944178" lon="0.694513">
        <ele>1264.8</ele>
        <time>2012-11-14T09:23:20Z</time>
      </trkpt>
      <trkpt lat="42.944095" lon="0.694355">
        <ele>1266.7</ele>
        <time>2012-11-14T09:23:48Z</time>
      </trkpt>
      <trkpt lat="42.944156" lon="0.694297">
        <ele>1272.0</ele>
        <time>2012-11-14T09:24:34Z</time>
      </trkpt>
      <trkpt lat="42.944166" lon="0.694153">
        <ele>1273.9</ele>
        <time>2012-11-14T09:24:48Z</time>
      </trkpt>
      <trkpt lat="42.944227" lon="0.694030">
        <ele>1275.3</ele>
        <time>2012-11-14T09:25:01Z</time>
      </trkpt>
      <trkpt lat="42.944304" lon="0.693920">
        <ele>1277.2</ele>
        <time>2012-11-14T09:25:18Z</time>
      </trkpt>
      <trkpt lat="42.944392" lon="0.693755">
        <ele>1279.7</ele>
        <time>2012-11-14T09:25:37Z</time>
      </trkpt>
      <trkpt lat="42.944418" lon="0.693789">
        <ele>1286.4</ele>
        <time>2012-11-14T09:28:34Z</time>
      </trkpt>
      <trkpt lat="42.944506" lon="0.693829">
        <ele>1291.7</ele>
        <time>2012-11-14T09:29:10Z</time>
      </trkpt>
      <trkpt lat="42.944595" lon="0.693628">
        <ele>1294.6</ele>
        <time>2012-11-14T09:29:36Z</time>
      </trkpt>
      <trkpt lat="42.944615" lon="0.693613">
        <ele>1299.8</ele>
        <time>2012-11-14T09:30:10Z</time>
      </trkpt>
      <trkpt lat="42.944684" lon="0.693522">
        <ele>1306.1</ele>
        <time>2012-11-14T09:30:56Z</time>
      </trkpt>
      <trkpt lat="42.944741" lon="0.693658">
        <ele>1309.4</ele>
        <time>2012-11-14T09:31:38Z</time>
      </trkpt>
      <trkpt lat="42.944783" lon="0.693432">
        <ele>1314.3</ele>
        <time>2012-11-14T09:32:25Z</time>
      </trkpt>
      <trkpt lat="42.944834" lon="0.693489">
        <ele>1317.6</ele>
        <time>2012-11-14T09:32:57Z</time>
      </trkpt>
      <trkpt lat="42.944908" lon="0.693590">
        <ele>1319.1</ele>
        <time>2012-11-14T09:33:17Z</time>
      </trkpt>
      <trkpt lat="42.944871" lon="0.693450">
        <ele>1321.5</ele>
        <time>2012-11-14T09:33:43Z</time>
      </trkpt>
      <trkpt lat="42.944872" lon="0.693304">
        <ele>1324.3</ele>
        <time>2012-11-14T09:34:14Z</time>
      </trkpt>
      <trkpt lat="42.944851" lon="0.693076">
        <ele>1326.8</ele>
        <time>2012-11-14T09:34:36Z</time>
      </trkpt>
      <trkpt lat="42.944866" lon="0.692991">
        <ele>1331.1</ele>
        <time>2012-11-14T09:35:02Z</time>
      </trkpt>
      <trkpt lat="42.944934" lon="0.693149">
        <ele>1334.4</ele>
        <time>2012-11-14T09:35:22Z</time>
      </trkpt>
      <trkpt lat="42.945026" lon="0.693328">
        <ele>1336.8</ele>
        <time>2012-11-14T09:35:45Z</time>
      </trkpt>
      <trkpt lat="42.945021" lon="0.693167">
        <ele>1340.7</ele>
        <time>2012-11-14T09:36:08Z</time>
      </trkpt>
      <trkpt lat="42.945061" lon="0.692885">
        <ele>1343.1</ele>
        <time>2012-11-14T09:37:23Z</time>
      </trkpt>
      <trkpt lat="42.944954" lon="0.692732">
        <ele>1345.0</ele>
        <time>2012-11-14T09:37:50Z</time>
      </trkpt>
      <trkpt lat="42.944995" lon="0.692564">
        <ele>1348.9</ele>
        <time>2012-11-14T09:38:11Z</time>
      </trkpt>
      <trkpt lat="42.944974" lon="0.692389">
        <ele>1352.2</ele>
        <time>2012-11-14T09:38:38Z</time>
      </trkpt>
      <trkpt lat="42.945077" lon="0.692599">
        <ele>1355.1</ele>
        <time>2012-11-14T09:39:17Z</time>
      </trkpt>
      <trkpt lat="42.945138" lon="0.692620">
        <ele>1359.4</ele>
        <time>2012-11-14T09:39:40Z</time>
      </trkpt>
      <trkpt lat="42.945122" lon="0.692328">
        <ele>1362.8</ele>
        <time>2012-11-14T09:40:09Z</time>
      </trkpt>
      <trkpt lat="42.945118" lon="0.692135">
        <ele>1366.2</ele>
        <time>2012-11-14T09:40:36Z</time>
      </trkpt>
      <trkpt lat="42.945186" lon="0.692153">
        <ele>1371.0</ele>
        <time>2012-11-14T09:41:09Z</time>
      </trkpt>
      <trkpt lat="42.945282" lon="0.692332">
        <ele>1374.8</ele>
        <time>2012-11-14T09:41:39Z</time>
      </trkpt>
      <trkpt lat="42.945362" lon="0.692331">
        <ele>1378.2</ele>
        <time>2012-11-14T09:42:58Z</time>
      </trkpt>
      <trkpt lat="42.945352" lon="0.692134">
        <ele>1382.0</ele>
        <time>2012-11-14T09:43:18Z</time>
      </trkpt>
      <trkpt lat="42.945319" lon="0.691896">
        <ele>1384.4</ele>
        <time>2012-11-14T09:43:44Z</time>
      </trkpt>
      <trkpt lat="42.945222" lon="0.691701">
        <ele>1387.8</ele>
        <time>2012-11-14T09:44:08Z</time>
      </trkpt>
      <trkpt lat="42.945163" lon="0.691582">
        <ele>1393.6</ele>
        <time>2012-11-14T09:44:39Z</time>
      </trkpt>
      <trkpt lat="42.945323" lon="0.691633">
        <ele>1397.9</ele>
        <time>2012-11-14T09:45:06Z</time>
      </trkpt>
      <trkpt lat="42.945419" lon="0.691848">
        <ele>1399.8</ele>
        <time>2012-11-14T09:46:33Z</time>
      </trkpt>
      <trkpt lat="42.945508" lon="0.691884">
        <ele>1404.1</ele>
        <time>2012-11-14T09:46:50Z</time>
      </trkpt>
      <trkpt lat="42.945512" lon="0.691768">
        <ele>1407.0</ele>
        <time>2012-11-14T09:47:48Z</time>
      </trkpt>
      <trkpt lat="42.945511" lon="0.691630">
        <ele>1410.4</ele>
        <time>2012-11-14T09:48:13Z</time>
      </trkpt>
      <trkpt lat="42.945452" lon="0.691502">
        <ele>1414.2</ele>
        <time>2012-11-14T09:48:36Z</time>
      </trkpt>
      <trkpt lat="42.945507" lon="0.691457">
        <ele>1418.6</ele>
        <time>2012-11-14T09:48:59Z</time>
      </trkpt>
      <trkpt lat="42.945444" lon="0.691378">
        <ele>1423.4</ele>
        <time>2012-11-14T09:50:01Z</time>
      </trkpt>
      <trkpt lat="42.945386" lon="0.691274">
        <ele>1427.7</ele>
        <time>2012-11-14T09:50:15Z</time>
      </trkpt>
      <trkpt lat="42.945399" lon="0.691173">
        <ele>1431.5</ele>
        <time>2012-11-14T09:50:31Z</time>
      </trkpt>
      <trkpt lat="42.945504" lon="0.691227">
        <ele>1434.9</ele>
        <time>2012-11-14T09:50:46Z</time>
      </trkpt>
      <trkpt lat="42.945498" lon="0.691183">
        <ele>1439.2</ele>
        <time>2012-11-14T09:51:04Z</time>
      </trkpt>
      <trkpt lat="42.945454" lon="0.691061">
        <ele>1443.1</ele>
        <time>2012-11-14T09:51:20Z</time>
      </trkpt>
      <trkpt lat="42.945552" lon="0.691132">
        <ele>1445.0</ele>
        <time>2012-11-14T09:51:39Z</time>
      </trkpt>
      <trkpt lat="42.945637" lon="0.691151">
        <ele>1448.8</ele>
        <time>2012-11-14T09:51:52Z</time>
      </trkpt>
      <trkpt lat="42.945711" lon="0.691140">
        <ele>1452.2</ele>
        <time>2012-11-14T09:53:43Z</time>
      </trkpt>
      <trkpt lat="42.945666" lon="0.690984">
        <ele>1453.2</ele>
        <time>2012-11-14T10:02:43Z</time>
        <name>Col de Teyech</name>
      </trkpt>
      <trkpt lat="42.945703" lon="0.691011">
        <ele>1450.8</ele>
        <time>2012-11-14T10:03:04Z</time>
      </trkpt>
      <trkpt lat="42.945835" lon="0.691141">
        <ele>1447.9</ele>
        <time>2012-11-14T10:03:23Z</time>
      </trkpt>
      <trkpt lat="42.945948" lon="0.691270">
        <ele>1446.9</ele>
        <time>2012-11-14T10:03:44Z</time>
      </trkpt>
      <trkpt lat="42.946070" lon="0.691407">
        <ele>1444.5</ele>
        <time>2012-11-14T10:04:10Z</time>
      </trkpt>
      <trkpt lat="42.946217" lon="0.691617">
        <ele>1447.4</ele>
        <time>2012-11-14T10:04:35Z</time>
      </trkpt>
      <trkpt lat="42.946244" lon="0.691783">
        <ele>1452.7</ele>
        <time>2012-11-14T10:05:09Z</time>
      </trkpt>
      <trkpt lat="42.946345" lon="0.691953">
        <ele>1455.6</ele>
        <time>2012-11-14T10:05:45Z</time>
      </trkpt>
      <trkpt lat="42.946426" lon="0.692185">
        <ele>1458.5</ele>
        <time>2012-11-14T10:06:29Z</time>
      </trkpt>
      <trkpt lat="42.946480" lon="0.692340">
        <ele>1461.8</ele>
        <time>2012-11-14T10:07:07Z</time>
      </trkpt>
      <trkpt lat="42.946580" lon="0.692601">
        <ele>1461.8</ele>
        <time>2012-11-14T10:07:24Z</time>
      </trkpt>
      <trkpt lat="42.946658" lon="0.692836">
        <ele>1461.8</ele>
        <time>2012-11-14T10:07:45Z</time>
      </trkpt>
      <trkpt lat="42.946679" lon="0.693058">
        <ele>1466.2</ele>
        <time>2012-11-14T10:08:01Z</time>
      </trkpt>
      <trkpt lat="42.946686" lon="0.693135">
        <ele>1468.6</ele>
        <time>2012-11-14T10:08:28Z</time>
      </trkpt>
      <trkpt lat="42.946821" lon="0.693218">
        <ele>1465.7</ele>
        <time>2012-11-14T10:08:41Z</time>
      </trkpt>
      <trkpt lat="42.946958" lon="0.693264">
        <ele>1465.2</ele>
        <time>2012-11-14T10:09:04Z</time>
      </trkpt>
      <trkpt lat="42.947134" lon="0.693301">
        <ele>1464.2</ele>
        <time>2012-11-14T10:09:26Z</time>
      </trkpt>
      <trkpt lat="42.947303" lon="0.693402">
        <ele>1466.6</ele>
        <time>2012-11-14T10:09:42Z</time>
      </trkpt>
      <trkpt lat="42.947474" lon="0.693409">
        <ele>1468.1</ele>
        <time>2012-11-14T10:10:01Z</time>
      </trkpt>
      <trkpt lat="42.947572" lon="0.693410">
        <ele>1469.5</ele>
        <time>2012-11-14T10:10:15Z</time>
      </trkpt>
      <trkpt lat="42.947678" lon="0.693427">
        <ele>1470.5</ele>
        <time>2012-11-14T10:10:27Z</time>
      </trkpt>
      <trkpt lat="42.947771" lon="0.693413">
        <ele>1470.0</ele>
        <time>2012-11-14T10:10:38Z</time>
      </trkpt>
      <trkpt lat="42.947857" lon="0.693405">
        <ele>1472.9</ele>
        <time>2012-11-14T10:11:25Z</time>
      </trkpt>
      <trkpt lat="42.947971" lon="0.693449">
        <ele>1474.8</ele>
        <time>2012-11-14T10:11:36Z</time>
      </trkpt>
      <trkpt lat="42.948056" lon="0.693456">
        <ele>1477.2</ele>
        <time>2012-11-14T10:11:50Z</time>
      </trkpt>
      <trkpt lat="42.948154" lon="0.693472">
        <ele>1479.6</ele>
        <time>2012-11-14T10:12:03Z</time>
      </trkpt>
      <trkpt lat="42.948250" lon="0.693481">
        <ele>1482.0</ele>
        <time>2012-11-14T10:12:18Z</time>
      </trkpt>
      <trkpt lat="42.948354" lon="0.693471">
        <ele>1483.9</ele>
        <time>2012-11-14T10:12:31Z</time>
      </trkpt>
      <trkpt lat="42.948470" lon="0.693428">
        <ele>1482.0</ele>
        <time>2012-11-14T10:12:45Z</time>
      </trkpt>
      <trkpt lat="42.948591" lon="0.693430">
        <ele>1482.0</ele>
        <time>2012-11-14T10:13:03Z</time>
      </trkpt>
      <trkpt lat="42.948726" lon="0.693462">
        <ele>1483.4</ele>
        <time>2012-11-14T10:13:18Z</time>
      </trkpt>
      <trkpt lat="42.948836" lon="0.693417">
        <ele>1487.3</ele>
        <time>2012-11-14T10:13:40Z</time>
      </trkpt>
      <trkpt lat="42.948930" lon="0.693436">
        <ele>1491.1</ele>
        <time>2012-11-14T10:14:01Z</time>
      </trkpt>
      <trkpt lat="42.949039" lon="0.693446">
        <ele>1496.9</ele>
        <time>2012-11-14T10:14:28Z</time>
      </trkpt>
      <trkpt lat="42.948963" lon="0.693441">
        <ele>1500.8</ele>
        <time>2012-11-14T10:16:26Z</time>
      </trkpt>
      <trkpt lat="42.949040" lon="0.693639">
        <ele>1506.5</ele>
        <time>2012-11-14T10:16:50Z</time>
      </trkpt>
      <trkpt lat="42.949142" lon="0.693626">
        <ele>1511.3</ele>
        <time>2012-11-14T10:17:18Z</time>
      </trkpt>
      <trkpt lat="42.949244" lon="0.693580">
        <ele>1516.1</ele>
        <time>2012-11-14T10:17:37Z</time>
      </trkpt>
      <trkpt lat="42.949362" lon="0.693577">
        <ele>1516.1</ele>
        <time>2012-11-14T10:19:13Z</time>
      </trkpt>
      <trkpt lat="42.949489" lon="0.693555">
        <ele>1516.6</ele>
        <time>2012-11-14T10:19:26Z</time>
      </trkpt>
      <trkpt lat="42.949583" lon="0.693573">
        <ele>1520.0</ele>
        <time>2012-11-14T10:19:40Z</time>
      </trkpt>
      <trkpt lat="42.949660" lon="0.693543">
        <ele>1524.3</ele>
        <time>2012-11-14T10:19:58Z</time>
      </trkpt>
      <trkpt lat="42.949758" lon="0.693454">
        <ele>1525.3</ele>
        <time>2012-11-14T10:20:11Z</time>
      </trkpt>
      <trkpt lat="42.949868" lon="0.693479">
        <ele>1528.2</ele>
        <time>2012-11-14T10:20:25Z</time>
      </trkpt>
      <trkpt lat="42.949983" lon="0.693472">
        <ele>1531.5</ele>
        <time>2012-11-14T10:20:44Z</time>
      </trkpt>
      <trkpt lat="42.950100" lon="0.693430">
        <ele>1534.4</ele>
        <time>2012-11-14T10:21:31Z</time>
      </trkpt>
      <trkpt lat="42.950217" lon="0.693427">
        <ele>1538.2</ele>
        <time>2012-11-14T10:21:46Z</time>
      </trkpt>
      <trkpt lat="42.950298" lon="0.693331">
        <ele>1539.7</ele>
        <time>2012-11-14T10:21:55Z</time>
      </trkpt>
      <trkpt lat="42.950371" lon="0.693236">
        <ele>1541.6</ele>
        <time>2012-11-14T10:22:03Z</time>
      </trkpt>
      <trkpt lat="42.950422" lon="0.693126">
        <ele>1544.5</ele>
        <time>2012-11-14T10:22:13Z</time>
      </trkpt>
      <trkpt lat="42.950446" lon="0.692989">
        <ele>1548.8</ele>
        <time>2012-11-14T10:22:26Z</time>
      </trkpt>
      <trkpt lat="42.950455" lon="0.692850">
        <ele>1551.7</ele>
        <time>2012-11-14T10:22:40Z</time>
      </trkpt>
      <trkpt lat="42.950465" lon="0.692702">
        <ele>1554.1</ele>
        <time>2012-11-14T10:22:54Z</time>
      </trkpt>
      <trkpt lat="42.950510" lon="0.692673">
        <ele>1557.5</ele>
        <time>2012-11-14T10:25:29Z</time>
      </trkpt>
      <trkpt lat="42.950570" lon="0.692709">
        <ele>1559.4</ele>
        <time>2012-11-14T10:28:17Z</time>
      </trkpt>
      <trkpt lat="42.950594" lon="0.692846">
        <ele>1561.8</ele>
        <time>2012-11-14T10:28:30Z</time>
      </trkpt>
      <trkpt lat="42.950634" lon="0.692958">
        <ele>1565.6</ele>
        <time>2012-11-14T10:28:45Z</time>
      </trkpt>
      <trkpt lat="42.950710" lon="0.693015">
        <ele>1570.0</ele>
        <time>2012-11-14T10:29:02Z</time>
      </trkpt>
      <trkpt lat="42.950794" lon="0.693064">
        <ele>1573.8</ele>
        <time>2012-11-14T10:29:18Z</time>
      </trkpt>
      <trkpt lat="42.950889" lon="0.693046">
        <ele>1575.7</ele>
        <time>2012-11-14T10:29:31Z</time>
      </trkpt>
      <trkpt lat="42.950992" lon="0.693061">
        <ele>1580.5</ele>
        <time>2012-11-14T10:29:51Z</time>
      </trkpt>
      <trkpt lat="42.951089" lon="0.693071">
        <ele>1583.4</ele>
        <time>2012-11-14T10:30:08Z</time>
      </trkpt>
      <trkpt lat="42.951168" lon="0.693102">
        <ele>1587.8</ele>
        <time>2012-11-14T10:30:28Z</time>
      </trkpt>
      <trkpt lat="42.951248" lon="0.693056">
        <ele>1591.1</ele>
        <time>2012-11-14T10:30:47Z</time>
      </trkpt>
      <trkpt lat="42.951323" lon="0.693045">
        <ele>1595.4</ele>
        <time>2012-11-14T10:31:07Z</time>
      </trkpt>
      <trkpt lat="42.951333" lon="0.693132">
        <ele>1598.8</ele>
        <time>2012-11-14T10:31:26Z</time>
        <name>Croupe NO du pic Saillant</name>
      </trkpt>
      <trkpt lat="42.951276" lon="0.693229">
        <ele>1600.2</ele>
        <time>2012-11-14T10:31:44Z</time>
      </trkpt>
      <trkpt lat="42.951253" lon="0.693344">
        <ele>1602.7</ele>
        <time>2012-11-14T10:31:59Z</time>
      </trkpt>
      <trkpt lat="42.951229" lon="0.693465">
        <ele>1605.1</ele>
        <time>2012-11-14T10:32:14Z</time>
      </trkpt>
      <trkpt lat="42.951174" lon="0.693554">
        <ele>1606.5</ele>
        <time>2012-11-14T10:32:27Z</time>
      </trkpt>
      <trkpt lat="42.951136" lon="0.693681">
        <ele>1606.5</ele>
        <time>2012-11-14T10:32:37Z</time>
      </trkpt>
      <trkpt lat="42.951131" lon="0.693815">
        <ele>1608.4</ele>
        <time>2012-11-14T10:33:09Z</time>
      </trkpt>
      <trkpt lat="42.951173" lon="0.693916">
        <ele>1610.8</ele>
        <time>2012-11-14T10:33:24Z</time>
      </trkpt>
      <trkpt lat="42.951189" lon="0.693961">
        <ele>1613.7</ele>
        <time>2012-11-14T10:37:02Z</time>
      </trkpt>
      <trkpt lat="42.951153" lon="0.694099">
        <ele>1616.1</ele>
        <time>2012-11-14T10:39:49Z</time>
      </trkpt>
      <trkpt lat="42.951096" lon="0.694193">
        <ele>1617.6</ele>
        <time>2012-11-14T10:40:02Z</time>
      </trkpt>
      <trkpt lat="42.951057" lon="0.694299">
        <ele>1620.4</ele>
        <time>2012-11-14T10:40:19Z</time>
      </trkpt>
      <trkpt lat="42.951010" lon="0.694399">
        <ele>1622.8</ele>
        <time>2012-11-14T10:40:35Z</time>
      </trkpt>
      <trkpt lat="42.950935" lon="0.694483">
        <ele>1625.7</ele>
        <time>2012-11-14T10:41:03Z</time>
      </trkpt>
      <trkpt lat="42.950884" lon="0.694568">
        <ele>1628.1</ele>
        <time>2012-11-14T10:41:24Z</time>
      </trkpt>
      <trkpt lat="42.950835" lon="0.694657">
        <ele>1631.0</ele>
        <time>2012-11-14T10:41:44Z</time>
      </trkpt>
      <trkpt lat="42.950764" lon="0.694776">
        <ele>1635.3</ele>
        <time>2012-11-14T10:42:12Z</time>
      </trkpt>
      <trkpt lat="42.950694" lon="0.694893">
        <ele>1637.7</ele>
        <time>2012-11-14T10:42:40Z</time>
      </trkpt>
      <trkpt lat="42.950635" lon="0.694983">
        <ele>1640.2</ele>
        <time>2012-11-14T10:42:55Z</time>
      </trkpt>
      <trkpt lat="42.950581" lon="0.695085">
        <ele>1642.1</ele>
        <time>2012-11-14T10:43:18Z</time>
      </trkpt>
      <trkpt lat="42.950542" lon="0.695186">
        <ele>1644.9</ele>
        <time>2012-11-14T10:43:34Z</time>
      </trkpt>
      <trkpt lat="42.950478" lon="0.695266">
        <ele>1647.8</ele>
        <time>2012-11-14T10:43:58Z</time>
      </trkpt>
      <trkpt lat="42.950418" lon="0.695347">
        <ele>1651.2</ele>
        <time>2012-11-14T10:44:15Z</time>
      </trkpt>
      <trkpt lat="42.950343" lon="0.695404">
        <ele>1654.1</ele>
        <time>2012-11-14T10:44:33Z</time>
      </trkpt>
      <trkpt lat="42.950275" lon="0.695510">
        <ele>1659.4</ele>
        <time>2012-11-14T10:45:10Z</time>
      </trkpt>
      <trkpt lat="42.950226" lon="0.695601">
        <ele>1663.2</ele>
        <time>2012-11-14T10:45:37Z</time>
      </trkpt>
      <trkpt lat="42.950159" lon="0.695693">
        <ele>1667.1</ele>
        <time>2012-11-14T10:45:56Z</time>
      </trkpt>
      <trkpt lat="42.950136" lon="0.695796">
        <ele>1670.4</ele>
        <time>2012-11-14T10:46:15Z</time>
      </trkpt>
      <trkpt lat="42.950115" lon="0.695898">
        <ele>1674.3</ele>
        <time>2012-11-14T10:46:35Z</time>
      </trkpt>
      <trkpt lat="42.950098" lon="0.695981">
        <ele>1677.6</ele>
        <time>2012-11-14T10:46:53Z</time>
      </trkpt>
      <trkpt lat="42.950110" lon="0.696085">
        <ele>1681.0</ele>
        <time>2012-11-14T10:47:13Z</time>
      </trkpt>
      <trkpt lat="42.950071" lon="0.696146">
        <ele>1683.9</ele>
        <time>2012-11-14T10:48:44Z</time>
      </trkpt>
      <trkpt lat="42.950073" lon="0.696279">
        <ele>1687.7</ele>
        <time>2012-11-14T10:49:01Z</time>
      </trkpt>
      <trkpt lat="42.950019" lon="0.696340">
        <ele>1689.7</ele>
        <time>2012-11-14T10:49:18Z</time>
      </trkpt>
      <trkpt lat="42.949940" lon="0.696380">
        <ele>1694.0</ele>
        <time>2012-11-14T10:49:37Z</time>
      </trkpt>
      <trkpt lat="42.949880" lon="0.696452">
        <ele>1696.9</ele>
        <time>2012-11-14T10:49:56Z</time>
      </trkpt>
      <trkpt lat="42.949805" lon="0.696550">
        <ele>1701.2</ele>
        <time>2012-11-14T10:50:17Z</time>
      </trkpt>
      <trkpt lat="42.949736" lon="0.696609">
        <ele>1703.6</ele>
        <time>2012-11-14T10:50:35Z</time>
      </trkpt>
      <trkpt lat="42.949667" lon="0.696653">
        <ele>1706.5</ele>
        <time>2012-11-14T10:53:04Z</time>
      </trkpt>
      <trkpt lat="42.949597" lon="0.696712">
        <ele>1709.8</ele>
        <time>2012-11-14T10:53:23Z</time>
      </trkpt>
      <trkpt lat="42.949512" lon="0.696729">
        <ele>1711.3</ele>
        <time>2012-11-14T10:53:39Z</time>
      </trkpt>
      <trkpt lat="42.949479" lon="0.696774">
        <ele>1714.2</ele>
        <time>2012-11-14T10:57:54Z</time>
      </trkpt>
      <trkpt lat="42.949381" lon="0.696782">
        <ele>1716.1</ele>
        <time>2012-11-14T10:58:18Z</time>
      </trkpt>
      <trkpt lat="42.949361" lon="0.696749">
        <ele>1717.5</ele>
        <time>2012-11-14T10:58:42Z</time>
      </trkpt>
      <trkpt lat="42.949347" lon="0.696628">
        <ele>1719.5</ele>
        <time>2012-11-14T10:59:02Z</time>
      </trkpt>
      <trkpt lat="42.949271" lon="0.696549">
        <ele>1723.8</ele>
        <time>2012-11-14T10:59:18Z</time>
      </trkpt>
      <trkpt lat="42.949205" lon="0.696477">
        <ele>1727.6</ele>
        <time>2012-11-14T10:59:30Z</time>
      </trkpt>
      <trkpt lat="42.949130" lon="0.696457">
        <ele>1732.4</ele>
        <time>2012-11-14T10:59:42Z</time>
      </trkpt>
      <trkpt lat="42.949049" lon="0.696496">
        <ele>1734.8</ele>
        <time>2012-11-14T10:59:55Z</time>
      </trkpt>
      <trkpt lat="42.948951" lon="0.696520">
        <ele>1738.2</ele>
        <time>2012-11-14T11:00:09Z</time>
      </trkpt>
      <trkpt lat="42.948874" lon="0.696448">
        <ele>1741.6</ele>
        <time>2012-11-14T11:00:23Z</time>
      </trkpt>
      <trkpt lat="42.948792" lon="0.696367">
        <ele>1744.4</ele>
        <time>2012-11-14T11:01:03Z</time>
      </trkpt>
      <trkpt lat="42.948717" lon="0.696337">
        <ele>1746.8</ele>
        <time>2012-11-14T11:01:17Z</time>
      </trkpt>
      <trkpt lat="42.948632" lon="0.696292">
        <ele>1749.7</ele>
        <time>2012-11-14T11:01:31Z</time>
      </trkpt>
      <trkpt lat="42.948567" lon="0.696224">
        <ele>1753.1</ele>
        <time>2012-11-14T11:04:07Z</time>
        <name>Pic Saillant</name>
      </trkpt>
      <trkpt lat="42.948589" lon="0.696289">
        <ele>1753.1</ele>
        <time>2012-11-14T11:05:40Z</time>
      </trkpt>
      <trkpt lat="42.948594" lon="0.696288">
        <ele>1752.1</ele>
        <time>2012-11-14T11:09:01Z</time>
      </trkpt>
      <trkpt lat="42.948588" lon="0.696356">
        <ele>1752.1</ele>
        <time>2012-11-14T11:09:16Z</time>
      </trkpt>
      <trkpt lat="42.948709" lon="0.696323">
        <ele>1749.7</ele>
        <time>2012-11-14T11:09:43Z</time>
      </trkpt>
      <trkpt lat="42.948781" lon="0.696392">
        <ele>1747.3</ele>
        <time>2012-11-14T11:10:07Z</time>
      </trkpt>
      <trkpt lat="42.948853" lon="0.696395">
        <ele>1745.4</ele>
        <time>2012-11-14T11:10:20Z</time>
      </trkpt>
      <trkpt lat="42.948909" lon="0.696474">
        <ele>1743.0</ele>
        <time>2012-11-14T11:10:34Z</time>
      </trkpt>
      <trkpt lat="42.948949" lon="0.696507">
        <ele>1740.6</ele>
        <time>2012-11-14T11:11:10Z</time>
      </trkpt>
      <trkpt lat="42.948968" lon="0.696582">
        <ele>1738.7</ele>
        <time>2012-11-14T11:13:08Z</time>
      </trkpt>
      <trkpt lat="42.949048" lon="0.696645">
        <ele>1736.3</ele>
        <time>2012-11-14T11:13:19Z</time>
      </trkpt>
      <trkpt lat="42.949110" lon="0.696649">
        <ele>1733.9</ele>
        <time>2012-11-14T11:13:34Z</time>
      </trkpt>
      <trkpt lat="42.949153" lon="0.696715">
        <ele>1730.0</ele>
        <time>2012-11-14T11:13:54Z</time>
      </trkpt>
      <trkpt lat="42.949182" lon="0.696817">
        <ele>1727.6</ele>
        <time>2012-11-14T11:14:28Z</time>
      </trkpt>
      <trkpt lat="42.949345" lon="0.696917">
        <ele>1719.0</ele>
        <time>2012-11-14T11:15:40Z</time>
      </trkpt>
      <trkpt lat="42.949377" lon="0.697042">
        <ele>1719.9</ele>
        <time>2012-11-14T11:15:51Z</time>
      </trkpt>
      <trkpt lat="42.949420" lon="0.697163">
        <ele>1720.4</ele>
        <time>2012-11-14T11:16:19Z</time>
      </trkpt>
      <trkpt lat="42.949472" lon="0.697278">
        <ele>1721.9</ele>
        <time>2012-11-14T11:16:47Z</time>
      </trkpt>
      <trkpt lat="42.949550" lon="0.697359">
        <ele>1724.3</ele>
        <time>2012-11-14T11:17:02Z</time>
      </trkpt>
      <trkpt lat="42.949643" lon="0.697416">
        <ele>1726.7</ele>
        <time>2012-11-14T11:17:21Z</time>
      </trkpt>
      <trkpt lat="42.949734" lon="0.697470">
        <ele>1729.1</ele>
        <time>2012-11-14T11:17:44Z</time>
      </trkpt>
      <trkpt lat="42.949788" lon="0.697500">
        <ele>1730.5</ele>
        <time>2012-11-14T11:19:25Z</time>
      </trkpt>
      <trkpt lat="42.949862" lon="0.697548">
        <ele>1732.9</ele>
        <time>2012-11-14T11:19:40Z</time>
      </trkpt>
      <trkpt lat="42.949917" lon="0.697627">
        <ele>1735.3</ele>
        <time>2012-11-14T11:20:02Z</time>
      </trkpt>
      <trkpt lat="42.949986" lon="0.697685">
        <ele>1738.7</ele>
        <time>2012-11-14T11:20:16Z</time>
      </trkpt>
      <trkpt lat="42.950062" lon="0.697753">
        <ele>1741.1</ele>
        <time>2012-11-14T11:20:32Z</time>
      </trkpt>
      <trkpt lat="42.950139" lon="0.697815">
        <ele>1744.4</ele>
        <time>2012-11-14T11:20:50Z</time>
      </trkpt>
      <trkpt lat="42.950227" lon="0.697860">
        <ele>1744.4</ele>
        <time>2012-11-14T11:21:02Z</time>
      </trkpt>
      <trkpt lat="42.950300" lon="0.697918">
        <ele>1746.8</ele>
        <time>2012-11-14T11:21:15Z</time>
      </trkpt>
      <trkpt lat="42.950380" lon="0.697963">
        <ele>1748.3</ele>
        <time>2012-11-14T11:21:30Z</time>
      </trkpt>
      <trkpt lat="42.950451" lon="0.698027">
        <ele>1750.2</ele>
        <time>2012-11-14T11:21:44Z</time>
      </trkpt>
      <trkpt lat="42.950408" lon="0.698122">
        <ele>1754.1</ele>
        <time>2012-11-14T11:22:02Z</time>
      </trkpt>
      <trkpt lat="42.950450" lon="0.698217">
        <ele>1758.4</ele>
        <time>2012-11-14T11:22:17Z</time>
      </trkpt>
      <trkpt lat="42.950370" lon="0.698255">
        <ele>1761.3</ele>
        <time>2012-11-14T11:22:32Z</time>
      </trkpt>
      <trkpt lat="42.950296" lon="0.698311">
        <ele>1764.6</ele>
        <time>2012-11-14T11:22:46Z</time>
      </trkpt>
      <trkpt lat="42.950240" lon="0.698366">
        <ele>1768.5</ele>
        <time>2012-11-14T11:23:03Z</time>
      </trkpt>
      <trkpt lat="42.950269" lon="0.698446">
        <ele>1771.4</ele>
        <time>2012-11-14T11:23:21Z</time>
      </trkpt>
      <trkpt lat="42.950291" lon="0.698517">
        <ele>1774.2</ele>
        <time>2012-11-14T11:23:36Z</time>
      </trkpt>
      <trkpt lat="42.950312" lon="0.698629">
        <ele>1777.1</ele>
        <time>2012-11-14T11:23:51Z</time>
      </trkpt>
      <trkpt lat="42.950257" lon="0.698704">
        <ele>1780.0</ele>
        <time>2012-11-14T11:24:07Z</time>
        <name>Pic du Gar</name>
      </trkpt>
      <trkpt lat="42.950298" lon="0.698755">
        <ele>1781.0</ele>
        <time>2012-11-14T12:13:12Z</time>
      </trkpt>
      <trkpt lat="42.950376" lon="0.698781">
        <ele>1778.1</ele>
        <time>2012-11-14T12:14:27Z</time>
      </trkpt>
      <trkpt lat="42.950417" lon="0.698884">
        <ele>1775.7</ele>
        <time>2012-11-14T12:14:50Z</time>
      </trkpt>
      <trkpt lat="42.950399" lon="0.699027">
        <ele>1776.7</ele>
        <time>2012-11-14T12:15:16Z</time>
      </trkpt>
      <trkpt lat="42.950442" lon="0.699090">
        <ele>1777.1</ele>
        <time>2012-11-14T12:15:55Z</time>
      </trkpt>
      <trkpt lat="42.950483" lon="0.699194">
        <ele>1774.7</ele>
        <time>2012-11-14T12:16:21Z</time>
      </trkpt>
      <trkpt lat="42.950580" lon="0.699201">
        <ele>1773.8</ele>
        <time>2012-11-14T12:16:37Z</time>
      </trkpt>
      <trkpt lat="42.950663" lon="0.699251">
        <ele>1772.3</ele>
        <time>2012-11-14T12:16:55Z</time>
      </trkpt>
      <trkpt lat="42.950751" lon="0.699220">
        <ele>1770.4</ele>
        <time>2012-11-14T12:17:13Z</time>
      </trkpt>
      <trkpt lat="42.950710" lon="0.699328">
        <ele>1769.4</ele>
        <time>2012-11-14T12:17:44Z</time>
      </trkpt>
      <trkpt lat="42.950696" lon="0.699432">
        <ele>1764.6</ele>
        <time>2012-11-14T12:17:59Z</time>
      </trkpt>
      <trkpt lat="42.950644" lon="0.699477">
        <ele>1760.8</ele>
        <time>2012-11-14T12:18:14Z</time>
      </trkpt>
      <trkpt lat="42.950607" lon="0.699556">
        <ele>1759.3</ele>
        <time>2012-11-14T12:18:29Z</time>
      </trkpt>
      <trkpt lat="42.950677" lon="0.699624">
        <ele>1755.5</ele>
        <time>2012-11-14T12:19:29Z</time>
      </trkpt>
      <trkpt lat="42.950739" lon="0.699712">
        <ele>1750.7</ele>
        <time>2012-11-14T12:19:44Z</time>
      </trkpt>
      <trkpt lat="42.950790" lon="0.699822">
        <ele>1747.3</ele>
        <time>2012-11-14T12:20:00Z</time>
      </trkpt>
      <trkpt lat="42.950833" lon="0.699940">
        <ele>1744.4</ele>
        <time>2012-11-14T12:20:17Z</time>
      </trkpt>
      <trkpt lat="42.950860" lon="0.700044">
        <ele>1739.6</ele>
        <time>2012-11-14T12:20:39Z</time>
      </trkpt>
      <trkpt lat="42.950835" lon="0.700114">
        <ele>1738.2</ele>
        <time>2012-11-14T12:24:03Z</time>
      </trkpt>
      <trkpt lat="42.950830" lon="0.700261">
        <ele>1737.7</ele>
        <time>2012-11-14T12:24:17Z</time>
      </trkpt>
      <trkpt lat="42.950833" lon="0.700358">
        <ele>1740.6</ele>
        <time>2012-11-14T12:24:31Z</time>
      </trkpt>
      <trkpt lat="42.950784" lon="0.700469">
        <ele>1743.5</ele>
        <time>2012-11-14T12:24:46Z</time>
      </trkpt>
      <trkpt lat="42.950722" lon="0.700565">
        <ele>1744.9</ele>
        <time>2012-11-14T12:25:17Z</time>
      </trkpt>
      <trkpt lat="42.950665" lon="0.700685">
        <ele>1745.4</ele>
        <time>2012-11-14T12:25:57Z</time>
      </trkpt>
      <trkpt lat="42.950612" lon="0.700789">
        <ele>1748.3</ele>
        <time>2012-11-14T12:26:15Z</time>
      </trkpt>
      <trkpt lat="42.950571" lon="0.700899">
        <ele>1751.7</ele>
        <time>2012-11-14T12:27:51Z</time>
      </trkpt>
      <trkpt lat="42.950558" lon="0.701037">
        <ele>1753.6</ele>
        <time>2012-11-14T12:28:11Z</time>
      </trkpt>
      <trkpt lat="42.950567" lon="0.701181">
        <ele>1753.6</ele>
        <time>2012-11-14T12:28:42Z</time>
      </trkpt>
      <trkpt lat="42.950529" lon="0.701268">
        <ele>1758.4</ele>
        <time>2012-11-14T12:29:19Z</time>
      </trkpt>
      <trkpt lat="42.950532" lon="0.701397">
        <ele>1758.4</ele>
        <time>2012-11-14T12:29:34Z</time>
      </trkpt>
      <trkpt lat="42.950539" lon="0.701519">
        <ele>1758.4</ele>
        <time>2012-11-14T12:29:53Z</time>
      </trkpt>
      <trkpt lat="42.950582" lon="0.701644">
        <ele>1756.0</ele>
        <time>2012-11-14T12:30:11Z</time>
      </trkpt>
      <trkpt lat="42.950554" lon="0.701787">
        <ele>1754.5</ele>
        <time>2012-11-14T12:30:55Z</time>
      </trkpt>
      <trkpt lat="42.950536" lon="0.701924">
        <ele>1753.6</ele>
        <time>2012-11-14T12:31:07Z</time>
      </trkpt>
      <trkpt lat="42.950505" lon="0.702056">
        <ele>1753.6</ele>
        <time>2012-11-14T12:31:19Z</time>
      </trkpt>
      <trkpt lat="42.950488" lon="0.702197">
        <ele>1753.6</ele>
        <time>2012-11-14T12:31:34Z</time>
      </trkpt>
      <trkpt lat="42.950495" lon="0.702315">
        <ele>1752.1</ele>
        <time>2012-11-14T12:31:55Z</time>
      </trkpt>
      <trkpt lat="42.950506" lon="0.702424">
        <ele>1751.2</ele>
        <time>2012-11-14T12:34:47Z</time>
      </trkpt>
      <trkpt lat="42.950522" lon="0.702443">
        <ele>1747.8</ele>
        <time>2012-11-14T12:35:47Z</time>
      </trkpt>
      <trkpt lat="42.950618" lon="0.702507">
        <ele>1744.4</ele>
        <time>2012-11-14T12:36:10Z</time>
      </trkpt>
      <trkpt lat="42.950628" lon="0.702592">
        <ele>1743.5</ele>
        <time>2012-11-14T12:37:16Z</time>
      </trkpt>
      <trkpt lat="42.950668" lon="0.702711">
        <ele>1740.6</ele>
        <time>2012-11-14T12:37:46Z</time>
      </trkpt>
      <trkpt lat="42.950663" lon="0.702843">
        <ele>1739.2</ele>
        <time>2012-11-14T12:38:07Z</time>
      </trkpt>
      <trkpt lat="42.950731" lon="0.702930">
        <ele>1736.8</ele>
        <time>2012-11-14T12:38:45Z</time>
      </trkpt>
      <trkpt lat="42.950810" lon="0.702988">
        <ele>1733.4</ele>
        <time>2012-11-14T12:40:40Z</time>
      </trkpt>
      <trkpt lat="42.950811" lon="0.703118">
        <ele>1731.9</ele>
        <time>2012-11-14T12:41:30Z</time>
      </trkpt>
      <trkpt lat="42.950892" lon="0.703160">
        <ele>1729.1</ele>
        <time>2012-11-14T12:42:02Z</time>
      </trkpt>
      <trkpt lat="42.950987" lon="0.703263">
        <ele>1729.1</ele>
        <time>2012-11-14T12:42:22Z</time>
      </trkpt>
      <trkpt lat="42.950901" lon="0.703357">
        <ele>1730.5</ele>
        <time>2012-11-14T12:43:57Z</time>
      </trkpt>
      <trkpt lat="42.950903" lon="0.703432">
        <ele>1731.9</ele>
        <time>2012-11-14T12:44:55Z</time>
      </trkpt>
      <trkpt lat="42.950963" lon="0.703518">
        <ele>1731.9</ele>
        <time>2012-11-14T12:45:17Z</time>
      </trkpt>
      <trkpt lat="42.950972" lon="0.703636">
        <ele>1728.6</ele>
        <time>2012-11-14T12:46:13Z</time>
      </trkpt>
      <trkpt lat="42.950995" lon="0.703739">
        <ele>1728.6</ele>
        <time>2012-11-14T12:46:31Z</time>
      </trkpt>
      <trkpt lat="42.951070" lon="0.703830">
        <ele>1725.2</ele>
        <time>2012-11-14T12:46:59Z</time>
      </trkpt>
      <trkpt lat="42.951095" lon="0.704030">
        <ele>1721.4</ele>
        <time>2012-11-14T12:47:44Z</time>
      </trkpt>
      <trkpt lat="42.951076" lon="0.704229">
        <ele>1719.0</ele>
        <time>2012-11-14T12:48:10Z</time>
      </trkpt>
      <trkpt lat="42.951104" lon="0.704338">
        <ele>1716.6</ele>
        <time>2012-11-14T12:48:31Z</time>
      </trkpt>
      <trkpt lat="42.951034" lon="0.704459">
        <ele>1716.6</ele>
        <time>2012-11-14T12:49:16Z</time>
      </trkpt>
      <trkpt lat="42.950936" lon="0.704474">
        <ele>1717.1</ele>
        <time>2012-11-14T12:49:27Z</time>
      </trkpt>
      <trkpt lat="42.951009" lon="0.704478">
        <ele>1717.1</ele>
        <time>2012-11-14T12:50:16Z</time>
      </trkpt>
      <trkpt lat="42.951074" lon="0.704606">
        <ele>1719.0</ele>
        <time>2012-11-14T12:50:39Z</time>
      </trkpt>
      <trkpt lat="42.951147" lon="0.704679">
        <ele>1719.5</ele>
        <time>2012-11-14T12:50:53Z</time>
      </trkpt>
      <trkpt lat="42.951223" lon="0.704777">
        <ele>1719.9</ele>
        <time>2012-11-14T12:51:30Z</time>
      </trkpt>
      <trkpt lat="42.951305" lon="0.704884">
        <ele>1719.9</ele>
        <time>2012-11-14T12:51:46Z</time>
      </trkpt>
      <trkpt lat="42.951374" lon="0.705125">
        <ele>1718.5</ele>
        <time>2012-11-14T12:52:09Z</time>
      </trkpt>
      <trkpt lat="42.951433" lon="0.705281">
        <ele>1712.2</ele>
        <time>2012-11-14T12:53:43Z</time>
      </trkpt>
      <trkpt lat="42.951380" lon="0.705482">
        <ele>1707.9</ele>
        <time>2012-11-14T12:54:41Z</time>
      </trkpt>
      <trkpt lat="42.951431" lon="0.705618">
        <ele>1707.9</ele>
        <time>2012-11-14T12:54:54Z</time>
      </trkpt>
      <trkpt lat="42.951396" lon="0.705775">
        <ele>1706.5</ele>
        <time>2012-11-14T12:55:09Z</time>
      </trkpt>
      <trkpt lat="42.951368" lon="0.705905">
        <ele>1703.1</ele>
        <time>2012-11-14T12:55:37Z</time>
      </trkpt>
      <trkpt lat="42.951346" lon="0.706055">
        <ele>1698.8</ele>
        <time>2012-11-14T12:55:58Z</time>
      </trkpt>
      <trkpt lat="42.951358" lon="0.706164">
        <ele>1694.5</ele>
        <time>2012-11-14T12:56:26Z</time>
      </trkpt>
      <trkpt lat="42.951396" lon="0.706245">
        <ele>1690.1</ele>
        <time>2012-11-14T12:58:29Z</time>
      </trkpt>
      <trkpt lat="42.951428" lon="0.706296">
        <ele>1685.8</ele>
        <time>2012-11-14T12:59:20Z</time>
      </trkpt>
      <trkpt lat="42.951522" lon="0.706276">
        <ele>1682.9</ele>
        <time>2012-11-14T13:00:01Z</time>
      </trkpt>
      <trkpt lat="42.951626" lon="0.706315">
        <ele>1678.1</ele>
        <time>2012-11-14T13:00:34Z</time>
      </trkpt>
      <trkpt lat="42.951641" lon="0.706404">
        <ele>1674.8</ele>
        <time>2012-11-14T13:01:52Z</time>
      </trkpt>
      <trkpt lat="42.951548" lon="0.706527">
        <ele>1670.4</ele>
        <time>2012-11-14T13:02:26Z</time>
      </trkpt>
      <trkpt lat="42.951491" lon="0.706684">
        <ele>1666.6</ele>
        <time>2012-11-14T13:03:28Z</time>
      </trkpt>
      <trkpt lat="42.951388" lon="0.706823">
        <ele>1662.7</ele>
        <time>2012-11-14T13:03:51Z</time>
      </trkpt>
      <trkpt lat="42.951282" lon="0.706872">
        <ele>1662.3</ele>
        <time>2012-11-14T13:04:16Z</time>
      </trkpt>
      <trkpt lat="42.951216" lon="0.706895">
        <ele>1661.8</ele>
        <time>2012-11-14T13:06:10Z</time>
      </trkpt>
      <trkpt lat="42.951179" lon="0.706968">
        <ele>1658.9</ele>
        <time>2012-11-14T13:07:07Z</time>
      </trkpt>
      <trkpt lat="42.951155" lon="0.707127">
        <ele>1655.5</ele>
        <time>2012-11-14T13:09:16Z</time>
      </trkpt>
      <trkpt lat="42.951127" lon="0.707301">
        <ele>1650.2</ele>
        <time>2012-11-14T13:09:39Z</time>
      </trkpt>
      <trkpt lat="42.951063" lon="0.707441">
        <ele>1646.4</ele>
        <time>2012-11-14T13:10:05Z</time>
      </trkpt>
      <trkpt lat="42.951173" lon="0.707663">
        <ele>1637.7</ele>
        <time>2012-11-14T13:11:26Z</time>
      </trkpt>
      <trkpt lat="42.951100" lon="0.707901">
        <ele>1632.9</ele>
        <time>2012-11-14T13:11:47Z</time>
      </trkpt>
      <trkpt lat="42.951049" lon="0.708097">
        <ele>1631.5</ele>
        <time>2012-11-14T13:12:04Z</time>
      </trkpt>
      <trkpt lat="42.951049" lon="0.708321">
        <ele>1628.1</ele>
        <time>2012-11-14T13:12:39Z</time>
      </trkpt>
      <trkpt lat="42.950987" lon="0.708486">
        <ele>1626.7</ele>
        <time>2012-11-14T13:12:54Z</time>
      </trkpt>
      <trkpt lat="42.950974" lon="0.708676">
        <ele>1623.3</ele>
        <time>2012-11-14T13:13:17Z</time>
      </trkpt>
      <trkpt lat="42.950970" lon="0.708837">
        <ele>1620.0</ele>
        <time>2012-11-14T13:13:45Z</time>
      </trkpt>
      <trkpt lat="42.950931" lon="0.708998">
        <ele>1613.7</ele>
        <time>2012-11-14T13:15:02Z</time>
      </trkpt>
      <trkpt lat="42.950857" lon="0.709121">
        <ele>1610.3</ele>
        <time>2012-11-14T13:15:22Z</time>
      </trkpt>
      <trkpt lat="42.950809" lon="0.709263">
        <ele>1615.2</ele>
        <time>2012-11-14T13:15:42Z</time>
      </trkpt>
      <trkpt lat="42.950752" lon="0.709394">
        <ele>1618.0</ele>
        <time>2012-11-14T13:16:08Z</time>
      </trkpt>
      <trkpt lat="42.950721" lon="0.709589">
        <ele>1616.6</ele>
        <time>2012-11-14T13:16:29Z</time>
      </trkpt>
      <trkpt lat="42.950674" lon="0.709806">
        <ele>1618.5</ele>
        <time>2012-11-14T13:16:47Z</time>
      </trkpt>
      <trkpt lat="42.950658" lon="0.709949">
        <ele>1616.1</ele>
        <time>2012-11-14T13:20:26Z</time>
      </trkpt>
      <trkpt lat="42.950553" lon="0.710075">
        <ele>1612.3</ele>
        <time>2012-11-14T13:20:51Z</time>
      </trkpt>
      <trkpt lat="42.950497" lon="0.710197">
        <ele>1610.8</ele>
        <time>2012-11-14T13:21:26Z</time>
      </trkpt>
      <trkpt lat="42.950446" lon="0.710248">
        <ele>1611.3</ele>
        <time>2012-11-14T13:23:59Z</time>
      </trkpt>
      <trkpt lat="42.950449" lon="0.710423">
        <ele>1611.3</ele>
        <time>2012-11-14T13:24:33Z</time>
      </trkpt>
      <trkpt lat="42.950419" lon="0.710610">
        <ele>1608.9</ele>
        <time>2012-11-14T13:24:49Z</time>
      </trkpt>
      <trkpt lat="42.950345" lon="0.710770">
        <ele>1610.3</ele>
        <time>2012-11-14T13:25:04Z</time>
      </trkpt>
      <trkpt lat="42.950269" lon="0.710892">
        <ele>1610.8</ele>
        <time>2012-11-14T13:25:20Z</time>
      </trkpt>
      <trkpt lat="42.950235" lon="0.711137">
        <ele>1606.5</ele>
        <time>2012-11-14T13:25:42Z</time>
      </trkpt>
      <trkpt lat="42.950189" lon="0.711276">
        <ele>1603.1</ele>
        <time>2012-11-14T13:26:09Z</time>
      </trkpt>
      <trkpt lat="42.950093" lon="0.711491">
        <ele>1599.8</ele>
        <time>2012-11-14T13:26:33Z</time>
      </trkpt>
      <trkpt lat="42.950018" lon="0.711750">
        <ele>1598.8</ele>
        <time>2012-11-14T13:26:58Z</time>
      </trkpt>
      <trkpt lat="42.949980" lon="0.712054">
        <ele>1596.9</ele>
        <time>2012-11-14T13:27:23Z</time>
      </trkpt>
      <trkpt lat="42.949925" lon="0.712243">
        <ele>1596.4</ele>
        <time>2012-11-14T13:27:41Z</time>
      </trkpt>
      <trkpt lat="42.949788" lon="0.712391">
        <ele>1594.0</ele>
        <time>2012-11-14T13:27:58Z</time>
      </trkpt>
      <trkpt lat="42.949692" lon="0.712496">
        <ele>1592.1</ele>
        <time>2012-11-14T13:28:10Z</time>
      </trkpt>
      <trkpt lat="42.949584" lon="0.712602">
        <ele>1595.0</ele>
        <time>2012-11-14T13:28:26Z</time>
      </trkpt>
      <trkpt lat="42.949535" lon="0.712772">
        <ele>1595.4</ele>
        <time>2012-11-14T13:28:41Z</time>
      </trkpt>
      <trkpt lat="42.949553" lon="0.712774">
        <ele>1592.6</ele>
        <time>2012-11-14T13:32:20Z</time>
      </trkpt>
      <trkpt lat="42.949518" lon="0.712900">
        <ele>1592.1</ele>
        <time>2012-11-14T13:33:05Z</time>
      </trkpt>
      <trkpt lat="42.949375" lon="0.713009">
        <ele>1587.8</ele>
        <time>2012-11-14T13:33:20Z</time>
      </trkpt>
      <trkpt lat="42.949272" lon="0.713125">
        <ele>1586.3</ele>
        <time>2012-11-14T13:33:28Z</time>
      </trkpt>
      <trkpt lat="42.949207" lon="0.713225">
        <ele>1584.9</ele>
        <time>2012-11-14T13:33:36Z</time>
      </trkpt>
      <trkpt lat="42.949165" lon="0.713316">
        <ele>1584.4</ele>
        <time>2012-11-14T13:33:44Z</time>
      </trkpt>
      <trkpt lat="42.949114" lon="0.713374">
        <ele>1582.0</ele>
        <time>2012-11-14T13:34:11Z</time>
        <name>Replat</name>
      </trkpt>
      <trkpt lat="42.949041" lon="0.713281">
        <ele>1580.1</ele>
        <time>2012-11-14T13:34:26Z</time>
      </trkpt>
      <trkpt lat="42.948965" lon="0.713255">
        <ele>1578.1</ele>
        <time>2012-11-14T13:34:46Z</time>
      </trkpt>
      <trkpt lat="42.948890" lon="0.713303">
        <ele>1575.3</ele>
        <time>2012-11-14T13:34:58Z</time>
      </trkpt>
      <trkpt lat="42.948797" lon="0.713299">
        <ele>1572.8</ele>
        <time>2012-11-14T13:35:29Z</time>
      </trkpt>
      <trkpt lat="42.948721" lon="0.713300">
        <ele>1569.5</ele>
        <time>2012-11-14T13:36:28Z</time>
      </trkpt>
      <trkpt lat="42.948642" lon="0.713304">
        <ele>1564.7</ele>
        <time>2012-11-14T13:36:41Z</time>
      </trkpt>
      <trkpt lat="42.948574" lon="0.713257">
        <ele>1559.9</ele>
        <time>2012-11-14T13:36:56Z</time>
      </trkpt>
      <trkpt lat="42.948494" lon="0.713220">
        <ele>1556.5</ele>
        <time>2012-11-14T13:37:17Z</time>
      </trkpt>
      <trkpt lat="42.948433" lon="0.713144">
        <ele>1553.2</ele>
        <time>2012-11-14T13:37:44Z</time>
      </trkpt>
      <trkpt lat="42.948367" lon="0.713243">
        <ele>1549.8</ele>
        <time>2012-11-14T13:38:45Z</time>
      </trkpt>
      <trkpt lat="42.948296" lon="0.713316">
        <ele>1546.9</ele>
        <time>2012-11-14T13:39:10Z</time>
      </trkpt>
      <trkpt lat="42.948233" lon="0.713239">
        <ele>1544.5</ele>
        <time>2012-11-14T13:39:23Z</time>
      </trkpt>
      <trkpt lat="42.948177" lon="0.713327">
        <ele>1540.2</ele>
        <time>2012-11-14T13:39:36Z</time>
      </trkpt>
      <trkpt lat="42.948110" lon="0.713394">
        <ele>1537.3</ele>
        <time>2012-11-14T13:39:55Z</time>
      </trkpt>
      <trkpt lat="42.948020" lon="0.713413">
        <ele>1533.4</ele>
        <time>2012-11-14T13:40:13Z</time>
      </trkpt>
      <trkpt lat="42.947935" lon="0.713382">
        <ele>1529.6</ele>
        <time>2012-11-14T13:40:26Z</time>
      </trkpt>
      <trkpt lat="42.947855" lon="0.713393">
        <ele>1526.7</ele>
        <time>2012-11-14T13:40:37Z</time>
      </trkpt>
      <trkpt lat="42.947777" lon="0.713430">
        <ele>1522.9</ele>
        <time>2012-11-14T13:40:49Z</time>
      </trkpt>
      <trkpt lat="42.947687" lon="0.713458">
        <ele>1519.5</ele>
        <time>2012-11-14T13:40:58Z</time>
      </trkpt>
      <trkpt lat="42.947606" lon="0.713538">
        <ele>1518.1</ele>
        <time>2012-11-14T13:41:06Z</time>
      </trkpt>
      <trkpt lat="42.947528" lon="0.713614">
        <ele>1515.7</ele>
        <time>2012-11-14T13:41:14Z</time>
      </trkpt>
      <trkpt lat="42.947464" lon="0.713683">
        <ele>1513.2</ele>
        <time>2012-11-14T13:41:22Z</time>
      </trkpt>
      <trkpt lat="42.947407" lon="0.713767">
        <ele>1511.3</ele>
        <time>2012-11-14T13:41:33Z</time>
      </trkpt>
      <trkpt lat="42.947348" lon="0.713810">
        <ele>1510.8</ele>
        <time>2012-11-14T13:44:35Z</time>
      </trkpt>
      <trkpt lat="42.947296" lon="0.713957">
        <ele>1509.9</ele>
        <time>2012-11-14T13:44:45Z</time>
      </trkpt>
      <trkpt lat="42.947236" lon="0.714072">
        <ele>1508.9</ele>
        <time>2012-11-14T13:44:55Z</time>
      </trkpt>
      <trkpt lat="42.947190" lon="0.714203">
        <ele>1508.9</ele>
        <time>2012-11-14T13:45:08Z</time>
      </trkpt>
      <trkpt lat="42.947122" lon="0.714350">
        <ele>1511.3</ele>
        <time>2012-11-14T13:45:22Z</time>
      </trkpt>
      <trkpt lat="42.947056" lon="0.714458">
        <ele>1509.9</ele>
        <time>2012-11-14T13:45:33Z</time>
      </trkpt>
      <trkpt lat="42.947006" lon="0.714582">
        <ele>1508.4</ele>
        <time>2012-11-14T13:45:42Z</time>
      </trkpt>
      <trkpt lat="42.946983" lon="0.714739">
        <ele>1508.4</ele>
        <time>2012-11-14T13:45:52Z</time>
      </trkpt>
      <trkpt lat="42.946936" lon="0.714880">
        <ele>1507.0</ele>
        <time>2012-11-14T13:46:06Z</time>
      </trkpt>
      <trkpt lat="42.946889" lon="0.714993">
        <ele>1506.0</ele>
        <time>2012-11-14T13:46:52Z</time>
      </trkpt>
      <trkpt lat="42.946808" lon="0.715098">
        <ele>1504.6</ele>
        <time>2012-11-14T13:47:08Z</time>
      </trkpt>
      <trkpt lat="42.946748" lon="0.715222">
        <ele>1502.2</ele>
        <time>2012-11-14T13:47:21Z</time>
      </trkpt>
      <trkpt lat="42.946695" lon="0.715338">
        <ele>1502.2</ele>
        <time>2012-11-14T13:47:38Z</time>
      </trkpt>
      <trkpt lat="42.946645" lon="0.715483">
        <ele>1502.2</ele>
        <time>2012-11-14T13:47:52Z</time>
      </trkpt>
      <trkpt lat="42.946574" lon="0.715604">
        <ele>1501.7</ele>
        <time>2012-11-14T13:48:02Z</time>
      </trkpt>
      <trkpt lat="42.946505" lon="0.715726">
        <ele>1498.8</ele>
        <time>2012-11-14T13:48:12Z</time>
      </trkpt>
      <trkpt lat="42.946430" lon="0.715826">
        <ele>1498.8</ele>
        <time>2012-11-14T13:48:21Z</time>
      </trkpt>
      <trkpt lat="42.946390" lon="0.715953">
        <ele>1500.8</ele>
        <time>2012-11-14T13:48:37Z</time>
      </trkpt>
      <trkpt lat="42.946380" lon="0.716116">
        <ele>1496.4</ele>
        <time>2012-11-14T13:48:56Z</time>
      </trkpt>
      <trkpt lat="42.946388" lon="0.716305">
        <ele>1494.5</ele>
        <time>2012-11-14T13:49:11Z</time>
      </trkpt>
      <trkpt lat="42.946369" lon="0.716440">
        <ele>1494.5</ele>
        <time>2012-11-14T13:49:22Z</time>
      </trkpt>
      <trkpt lat="42.946388" lon="0.716584">
        <ele>1492.1</ele>
        <time>2012-11-14T13:49:43Z</time>
      </trkpt>
      <trkpt lat="42.946362" lon="0.716710">
        <ele>1490.2</ele>
        <time>2012-11-14T13:49:53Z</time>
      </trkpt>
      <trkpt lat="42.946352" lon="0.716864">
        <ele>1490.7</ele>
        <time>2012-11-14T13:50:04Z</time>
      </trkpt>
      <trkpt lat="42.946340" lon="0.717088">
        <ele>1489.7</ele>
        <time>2012-11-14T13:50:19Z</time>
      </trkpt>
      <trkpt lat="42.946282" lon="0.717226">
        <ele>1489.2</ele>
        <time>2012-11-14T13:50:29Z</time>
      </trkpt>
      <trkpt lat="42.946211" lon="0.717391">
        <ele>1492.1</ele>
        <time>2012-11-14T13:50:46Z</time>
      </trkpt>
      <trkpt lat="42.946188" lon="0.717557">
        <ele>1491.1</ele>
        <time>2012-11-14T13:50:59Z</time>
      </trkpt>
      <trkpt lat="42.946100" lon="0.717706">
        <ele>1492.1</ele>
        <time>2012-11-14T13:51:14Z</time>
      </trkpt>
      <trkpt lat="42.946049" lon="0.717873">
        <ele>1491.6</ele>
        <time>2012-11-14T13:51:27Z</time>
      </trkpt>
      <trkpt lat="42.946014" lon="0.718035">
        <ele>1491.6</ele>
        <time>2012-11-14T13:51:40Z</time>
      </trkpt>
      <trkpt lat="42.945938" lon="0.718187">
        <ele>1490.7</ele>
        <time>2012-11-14T13:51:53Z</time>
      </trkpt>
      <trkpt lat="42.945903" lon="0.718349">
        <ele>1488.7</ele>
        <time>2012-11-14T13:52:09Z</time>
      </trkpt>
      <trkpt lat="42.945863" lon="0.718511">
        <ele>1486.3</ele>
        <time>2012-11-14T13:52:20Z</time>
      </trkpt>
      <trkpt lat="42.945723" lon="0.718641">
        <ele>1488.3</ele>
        <time>2012-11-14T13:52:35Z</time>
      </trkpt>
      <trkpt lat="42.945619" lon="0.718761">
        <ele>1489.7</ele>
        <time>2012-11-14T13:52:50Z</time>
      </trkpt>
      <trkpt lat="42.945533" lon="0.718867">
        <ele>1492.1</ele>
        <time>2012-11-14T13:53:04Z</time>
      </trkpt>
      <trkpt lat="42.945462" lon="0.719037">
        <ele>1495.5</ele>
        <time>2012-11-14T13:53:24Z</time>
      </trkpt>
      <trkpt lat="42.945366" lon="0.719197">
        <ele>1500.3</ele>
        <time>2012-11-14T13:53:49Z</time>
      </trkpt>
      <trkpt lat="42.945241" lon="0.719283">
        <ele>1500.8</ele>
        <time>2012-11-14T13:54:55Z</time>
      </trkpt>
      <trkpt lat="42.945164" lon="0.719396">
        <ele>1500.3</ele>
        <time>2012-11-14T13:56:30Z</time>
      </trkpt>
      <trkpt lat="42.945082" lon="0.719507">
        <ele>1501.2</ele>
        <time>2012-11-14T13:56:50Z</time>
      </trkpt>
      <trkpt lat="42.944968" lon="0.719592">
        <ele>1496.9</ele>
        <time>2012-11-14T13:57:07Z</time>
      </trkpt>
      <trkpt lat="42.944826" lon="0.719675">
        <ele>1493.6</ele>
        <time>2012-11-14T13:57:24Z</time>
      </trkpt>
      <trkpt lat="42.944696" lon="0.719720">
        <ele>1488.3</ele>
        <time>2012-11-14T13:57:45Z</time>
      </trkpt>
      <trkpt lat="42.944726" lon="0.719932">
        <ele>1484.4</ele>
        <time>2012-11-14T13:58:10Z</time>
      </trkpt>
      <trkpt lat="42.944669" lon="0.720027">
        <ele>1479.1</ele>
        <time>2012-11-14T13:58:29Z</time>
      </trkpt>
      <trkpt lat="42.944561" lon="0.720143">
        <ele>1475.3</ele>
        <time>2012-11-14T13:58:43Z</time>
      </trkpt>
      <trkpt lat="42.944527" lon="0.720282">
        <ele>1471.9</ele>
        <time>2012-11-14T13:58:59Z</time>
      </trkpt>
      <trkpt lat="42.944564" lon="0.720457">
        <ele>1469.0</ele>
        <time>2012-11-14T13:59:18Z</time>
      </trkpt>
      <trkpt lat="42.944471" lon="0.720565">
        <ele>1464.2</ele>
        <time>2012-11-14T13:59:46Z</time>
      </trkpt>
      <trkpt lat="42.944417" lon="0.720401">
        <ele>1463.3</ele>
        <time>2012-11-14T14:00:56Z</time>
      </trkpt>
      <trkpt lat="42.944297" lon="0.720358">
        <ele>1456.5</ele>
        <time>2012-11-14T14:01:19Z</time>
      </trkpt>
      <trkpt lat="42.944231" lon="0.720201">
        <ele>1452.2</ele>
        <time>2012-11-14T14:01:39Z</time>
      </trkpt>
      <trkpt lat="42.944123" lon="0.720144">
        <ele>1446.9</ele>
        <time>2012-11-14T14:02:00Z</time>
      </trkpt>
      <trkpt lat="42.943937" lon="0.720033">
        <ele>1442.1</ele>
        <time>2012-11-14T14:02:23Z</time>
      </trkpt>
      <trkpt lat="42.943833" lon="0.720016">
        <ele>1438.3</ele>
        <time>2012-11-14T14:02:37Z</time>
      </trkpt>
      <trkpt lat="42.943698" lon="0.719928">
        <ele>1435.9</ele>
        <time>2012-11-14T14:02:51Z</time>
      </trkpt>
      <trkpt lat="42.943594" lon="0.719937">
        <ele>1433.0</ele>
        <time>2012-11-14T14:03:07Z</time>
      </trkpt>
      <trkpt lat="42.943468" lon="0.719881">
        <ele>1431.1</ele>
        <time>2012-11-14T14:03:25Z</time>
      </trkpt>
      <trkpt lat="42.943321" lon="0.719859">
        <ele>1427.7</ele>
        <time>2012-11-14T14:03:48Z</time>
      </trkpt>
      <trkpt lat="42.943184" lon="0.719862">
        <ele>1425.8</ele>
        <time>2012-11-14T14:03:58Z</time>
      </trkpt>
      <trkpt lat="42.943056" lon="0.719781">
        <ele>1424.3</ele>
        <time>2012-11-14T14:04:18Z</time>
      </trkpt>
      <trkpt lat="42.942950" lon="0.719733">
        <ele>1421.4</ele>
        <time>2012-11-14T14:04:32Z</time>
      </trkpt>
      <trkpt lat="42.942844" lon="0.719625">
        <ele>1419.5</ele>
        <time>2012-11-14T14:04:45Z</time>
      </trkpt>
      <trkpt lat="42.942741" lon="0.719570">
        <ele>1417.1</ele>
        <time>2012-11-14T14:04:57Z</time>
      </trkpt>
      <trkpt lat="42.942629" lon="0.719546">
        <ele>1413.3</ele>
        <time>2012-11-14T14:05:10Z</time>
      </trkpt>
      <trkpt lat="42.942591" lon="0.719599">
        <ele>1410.9</ele>
        <time>2012-11-14T14:05:55Z</time>
      </trkpt>
      <trkpt lat="42.942475" lon="0.719674">
        <ele>1405.6</ele>
        <time>2012-11-14T14:06:08Z</time>
      </trkpt>
      <trkpt lat="42.942319" lon="0.719683">
        <ele>1398.9</ele>
        <time>2012-11-14T14:06:23Z</time>
      </trkpt>
      <trkpt lat="42.942196" lon="0.719748">
        <ele>1394.5</ele>
        <time>2012-11-14T14:06:36Z</time>
      </trkpt>
      <trkpt lat="42.942096" lon="0.719835">
        <ele>1389.2</ele>
        <time>2012-11-14T14:06:44Z</time>
      </trkpt>
      <trkpt lat="42.941982" lon="0.719870">
        <ele>1386.4</ele>
        <time>2012-11-14T14:06:52Z</time>
      </trkpt>
      <trkpt lat="42.941914" lon="0.719939">
        <ele>1382.0</ele>
        <time>2012-11-14T14:06:59Z</time>
      </trkpt>
      <trkpt lat="42.941813" lon="0.720005">
        <ele>1377.2</ele>
        <time>2012-11-14T14:07:11Z</time>
      </trkpt>
      <trkpt lat="42.941681" lon="0.720034">
        <ele>1373.9</ele>
        <time>2012-11-14T14:07:21Z</time>
      </trkpt>
      <trkpt lat="42.941560" lon="0.720106">
        <ele>1368.1</ele>
        <time>2012-11-14T14:07:35Z</time>
      </trkpt>
      <trkpt lat="42.941422" lon="0.720165">
        <ele>1363.3</ele>
        <time>2012-11-14T14:07:48Z</time>
      </trkpt>
      <trkpt lat="42.941346" lon="0.720277">
        <ele>1360.4</ele>
        <time>2012-11-14T14:07:59Z</time>
      </trkpt>
      <trkpt lat="42.941271" lon="0.720370">
        <ele>1358.0</ele>
        <time>2012-11-14T14:08:08Z</time>
      </trkpt>
      <trkpt lat="42.941174" lon="0.720412">
        <ele>1355.1</ele>
        <time>2012-11-14T14:08:21Z</time>
      </trkpt>
      <trkpt lat="42.941116" lon="0.720514">
        <ele>1352.7</ele>
        <time>2012-11-14T14:08:30Z</time>
      </trkpt>
      <trkpt lat="42.941034" lon="0.720575">
        <ele>1349.8</ele>
        <time>2012-11-14T14:08:39Z</time>
      </trkpt>
      <trkpt lat="42.940964" lon="0.720611">
        <ele>1348.4</ele>
        <time>2012-11-14T14:08:44Z</time>
      </trkpt>
      <trkpt lat="42.940902" lon="0.720691">
        <ele>1348.9</ele>
        <time>2012-11-14T14:08:51Z</time>
      </trkpt>
      <trkpt lat="42.940850" lon="0.720814">
        <ele>1349.8</ele>
        <time>2012-11-14T14:09:00Z</time>
      </trkpt>
      <trkpt lat="42.940805" lon="0.720907">
        <ele>1349.8</ele>
        <time>2012-11-14T14:09:09Z</time>
      </trkpt>
      <trkpt lat="42.940793" lon="0.720913">
        <ele>1349.3</ele>
        <time>2012-11-14T14:12:06Z</time>
      </trkpt>
      <trkpt lat="42.940720" lon="0.720945">
        <ele>1347.9</ele>
        <time>2012-11-14T14:13:16Z</time>
      </trkpt>
      <trkpt lat="42.940665" lon="0.721014">
        <ele>1345.5</ele>
        <time>2012-11-14T14:13:28Z</time>
      </trkpt>
      <trkpt lat="42.940591" lon="0.721079">
        <ele>1341.7</ele>
        <time>2012-11-14T14:13:41Z</time>
      </trkpt>
      <trkpt lat="42.940506" lon="0.721124">
        <ele>1338.8</ele>
        <time>2012-11-14T14:14:00Z</time>
        <name>Col de Caube</name>
      </trkpt>
      <trkpt lat="42.940393" lon="0.721159">
        <ele>1336.4</ele>
        <time>2012-11-14T14:14:15Z</time>
      </trkpt>
      <trkpt lat="42.940300" lon="0.721205">
        <ele>1333.5</ele>
        <time>2012-11-14T14:14:32Z</time>
      </trkpt>
      <trkpt lat="42.940209" lon="0.721246">
        <ele>1331.1</ele>
        <time>2012-11-14T14:14:48Z</time>
      </trkpt>
      <trkpt lat="42.940130" lon="0.721280">
        <ele>1327.7</ele>
        <time>2012-11-14T14:16:04Z</time>
      </trkpt>
      <trkpt lat="42.940000" lon="0.721326">
        <ele>1325.3</ele>
        <time>2012-11-14T14:16:22Z</time>
      </trkpt>
      <trkpt lat="42.939876" lon="0.721361">
        <ele>1322.9</ele>
        <time>2012-11-14T14:16:43Z</time>
      </trkpt>
      <trkpt lat="42.939741" lon="0.721358">
        <ele>1319.1</ele>
        <time>2012-11-14T14:17:01Z</time>
      </trkpt>
      <trkpt lat="42.939645" lon="0.721470">
        <ele>1315.7</ele>
        <time>2012-11-14T14:17:24Z</time>
      </trkpt>
      <trkpt lat="42.939545" lon="0.721542">
        <ele>1312.8</ele>
        <time>2012-11-14T14:17:37Z</time>
      </trkpt>
      <trkpt lat="42.939430" lon="0.721627">
        <ele>1309.9</ele>
        <time>2012-11-14T14:17:53Z</time>
      </trkpt>
      <trkpt lat="42.939312" lon="0.721697">
        <ele>1307.1</ele>
        <time>2012-11-14T14:18:07Z</time>
      </trkpt>
      <trkpt lat="42.939249" lon="0.721774">
        <ele>1305.6</ele>
        <time>2012-11-14T14:18:20Z</time>
      </trkpt>
      <trkpt lat="42.939105" lon="0.721783">
        <ele>1302.7</ele>
        <time>2012-11-14T14:18:37Z</time>
      </trkpt>
      <trkpt lat="42.938927" lon="0.721851">
        <ele>1298.4</ele>
        <time>2012-11-14T14:18:57Z</time>
      </trkpt>
      <trkpt lat="42.938771" lon="0.721882">
        <ele>1297.0</ele>
        <time>2012-11-14T14:19:15Z</time>
      </trkpt>
      <trkpt lat="42.938660" lon="0.721756">
        <ele>1294.1</ele>
        <time>2012-11-14T14:19:33Z</time>
      </trkpt>
      <trkpt lat="42.938557" lon="0.721518">
        <ele>1292.6</ele>
        <time>2012-11-14T14:19:48Z</time>
      </trkpt>
      <trkpt lat="42.938452" lon="0.721359">
        <ele>1290.2</ele>
        <time>2012-11-14T14:20:00Z</time>
      </trkpt>
      <trkpt lat="42.938379" lon="0.721207">
        <ele>1288.3</ele>
        <time>2012-11-14T14:20:13Z</time>
      </trkpt>
      <trkpt lat="42.938303" lon="0.721137">
        <ele>1286.4</ele>
        <time>2012-11-14T14:20:27Z</time>
      </trkpt>
      <trkpt lat="42.938181" lon="0.721062">
        <ele>1284.0</ele>
        <time>2012-11-14T14:20:43Z</time>
      </trkpt>
      <trkpt lat="42.938087" lon="0.720920">
        <ele>1282.1</ele>
        <time>2012-11-14T14:20:58Z</time>
      </trkpt>
      <trkpt lat="42.937940" lon="0.720863">
        <ele>1279.2</ele>
        <time>2012-11-14T14:21:15Z</time>
      </trkpt>
      <trkpt lat="42.937835" lon="0.720747">
        <ele>1277.2</ele>
        <time>2012-11-14T14:21:30Z</time>
      </trkpt>
      <trkpt lat="42.937749" lon="0.720638">
        <ele>1275.3</ele>
        <time>2012-11-14T14:21:43Z</time>
      </trkpt>
      <trkpt lat="42.937727" lon="0.720587">
        <ele>1272.0</ele>
        <time>2012-11-14T14:21:57Z</time>
      </trkpt>
      <trkpt lat="42.937852" lon="0.720584">
        <ele>1270.5</ele>
        <time>2012-11-14T14:22:13Z</time>
      </trkpt>
      <trkpt lat="42.937977" lon="0.720599">
        <ele>1267.6</ele>
        <time>2012-11-14T14:22:27Z</time>
      </trkpt>
      <trkpt lat="42.938084" lon="0.720595">
        <ele>1263.8</ele>
        <time>2012-11-14T14:22:47Z</time>
      </trkpt>
      <trkpt lat="42.938217" lon="0.720591">
        <ele>1261.4</ele>
        <time>2012-11-14T14:23:05Z</time>
      </trkpt>
      <trkpt lat="42.938410" lon="0.720668">
        <ele>1256.1</ele>
        <time>2012-11-14T14:24:35Z</time>
      </trkpt>
      <trkpt lat="42.938559" lon="0.720703">
        <ele>1252.2</ele>
        <time>2012-11-14T14:24:54Z</time>
      </trkpt>
      <trkpt lat="42.938808" lon="0.720730">
        <ele>1245.5</ele>
        <time>2012-11-14T14:25:19Z</time>
      </trkpt>
      <trkpt lat="42.938844" lon="0.720549">
        <ele>1242.6</ele>
        <time>2012-11-14T14:25:36Z</time>
      </trkpt>
      <trkpt lat="42.938913" lon="0.720453">
        <ele>1240.7</ele>
        <time>2012-11-14T14:25:50Z</time>
      </trkpt>
      <trkpt lat="42.938990" lon="0.720364">
        <ele>1237.3</ele>
        <time>2012-11-14T14:26:03Z</time>
      </trkpt>
      <trkpt lat="42.939027" lon="0.720269">
        <ele>1234.5</ele>
        <time>2012-11-14T14:26:16Z</time>
      </trkpt>
      <trkpt lat="42.939142" lon="0.720138">
        <ele>1231.1</ele>
        <time>2012-11-14T14:26:35Z</time>
      </trkpt>
      <trkpt lat="42.939218" lon="0.720061">
        <ele>1226.8</ele>
        <time>2012-11-14T14:26:52Z</time>
      </trkpt>
      <trkpt lat="42.939287" lon="0.719915">
        <ele>1222.4</ele>
        <time>2012-11-14T14:27:13Z</time>
      </trkpt>
      <trkpt lat="42.939376" lon="0.719743">
        <ele>1217.2</ele>
        <time>2012-11-14T14:27:34Z</time>
      </trkpt>
      <trkpt lat="42.939328" lon="0.719576">
        <ele>1213.3</ele>
        <time>2012-11-14T14:28:03Z</time>
      </trkpt>
      <trkpt lat="42.939358" lon="0.719413">
        <ele>1208.5</ele>
        <time>2012-11-14T14:28:19Z</time>
      </trkpt>
      <trkpt lat="42.939358" lon="0.719271">
        <ele>1205.2</ele>
        <time>2012-11-14T14:28:34Z</time>
      </trkpt>
      <trkpt lat="42.939412" lon="0.719101">
        <ele>1201.3</ele>
        <time>2012-11-14T14:28:56Z</time>
      </trkpt>
      <trkpt lat="42.939482" lon="0.718993">
        <ele>1196.5</ele>
        <time>2012-11-14T14:29:12Z</time>
      </trkpt>
      <trkpt lat="42.939495" lon="0.718819">
        <ele>1193.6</ele>
        <time>2012-11-14T14:29:29Z</time>
      </trkpt>
      <trkpt lat="42.939514" lon="0.718689">
        <ele>1190.7</ele>
        <time>2012-11-14T14:29:45Z</time>
      </trkpt>
      <trkpt lat="42.939560" lon="0.718521">
        <ele>1187.4</ele>
        <time>2012-11-14T14:30:06Z</time>
      </trkpt>
      <trkpt lat="42.939541" lon="0.718343">
        <ele>1183.0</ele>
        <time>2012-11-14T14:30:25Z</time>
      </trkpt>
      <trkpt lat="42.939531" lon="0.718202">
        <ele>1181.1</ele>
        <time>2012-11-14T14:30:38Z</time>
      </trkpt>
      <trkpt lat="42.939511" lon="0.718039">
        <ele>1179.2</ele>
        <time>2012-11-14T14:30:51Z</time>
      </trkpt>
      <trkpt lat="42.939516" lon="0.717838">
        <ele>1173.4</ele>
        <time>2012-11-14T14:31:08Z</time>
      </trkpt>
      <trkpt lat="42.939577" lon="0.717744">
        <ele>1168.1</ele>
        <time>2012-11-14T14:31:44Z</time>
      </trkpt>
      <trkpt lat="42.939531" lon="0.717528">
        <ele>1163.3</ele>
        <time>2012-11-14T14:32:35Z</time>
      </trkpt>
      <trkpt lat="42.939517" lon="0.717404">
        <ele>1160.0</ele>
        <time>2012-11-14T14:32:57Z</time>
      </trkpt>
      <trkpt lat="42.939483" lon="0.717262">
        <ele>1155.6</ele>
        <time>2012-11-14T14:33:25Z</time>
      </trkpt>
      <trkpt lat="42.939493" lon="0.717118">
        <ele>1151.8</ele>
        <time>2012-11-14T14:33:40Z</time>
      </trkpt>
      <trkpt lat="42.939465" lon="0.716825">
        <ele>1143.6</ele>
        <time>2012-11-14T14:34:08Z</time>
      </trkpt>
      <trkpt lat="42.939367" lon="0.716606">
        <ele>1137.4</ele>
        <time>2012-11-14T14:34:32Z</time>
      </trkpt>
      <trkpt lat="42.939332" lon="0.716363">
        <ele>1129.2</ele>
        <time>2012-11-14T14:35:05Z</time>
      </trkpt>
      <trkpt lat="42.939321" lon="0.716101">
        <ele>1121.5</ele>
        <time>2012-11-14T14:35:55Z</time>
      </trkpt>
      <trkpt lat="42.939310" lon="0.715957">
        <ele>1118.2</ele>
        <time>2012-11-14T14:38:22Z</time>
      </trkpt>
      <trkpt lat="42.939272" lon="0.715815">
        <ele>1115.3</ele>
        <time>2012-11-14T14:38:35Z</time>
      </trkpt>
      <trkpt lat="42.939214" lon="0.715629">
        <ele>1110.9</ele>
        <time>2012-11-14T14:38:51Z</time>
      </trkpt>
      <trkpt lat="42.939161" lon="0.715422">
        <ele>1106.1</ele>
        <time>2012-11-14T14:39:10Z</time>
      </trkpt>
      <trkpt lat="42.939079" lon="0.715241">
        <ele>1100.8</ele>
        <time>2012-11-14T14:39:27Z</time>
      </trkpt>
      <trkpt lat="42.939044" lon="0.715126">
        <ele>1097.0</ele>
        <time>2012-11-14T14:39:43Z</time>
      </trkpt>
      <trkpt lat="42.938999" lon="0.714995">
        <ele>1093.2</ele>
        <time>2012-11-14T14:40:04Z</time>
      </trkpt>
      <trkpt lat="42.938922" lon="0.714856">
        <ele>1089.3</ele>
        <time>2012-11-14T14:40:21Z</time>
      </trkpt>
      <trkpt lat="42.938857" lon="0.714691">
        <ele>1087.9</ele>
        <time>2012-11-14T14:40:36Z</time>
      </trkpt>
      <trkpt lat="42.938847" lon="0.714551">
        <ele>1084.0</ele>
        <time>2012-11-14T14:40:51Z</time>
      </trkpt>
      <trkpt lat="42.938794" lon="0.714376">
        <ele>1080.7</ele>
        <time>2012-11-14T14:41:08Z</time>
      </trkpt>
      <trkpt lat="42.938691" lon="0.714212">
        <ele>1076.8</ele>
        <time>2012-11-14T14:41:30Z</time>
      </trkpt>
      <trkpt lat="42.938618" lon="0.714171">
        <ele>1073.0</ele>
        <time>2012-11-14T14:41:48Z</time>
      </trkpt>
      <trkpt lat="42.938501" lon="0.714013">
        <ele>1069.6</ele>
        <time>2012-11-14T14:42:06Z</time>
      </trkpt>
      <trkpt lat="42.938368" lon="0.713930">
        <ele>1065.3</ele>
        <time>2012-11-14T14:42:21Z</time>
      </trkpt>
      <trkpt lat="42.938221" lon="0.713879">
        <ele>1060.9</ele>
        <time>2012-11-14T14:42:40Z</time>
      </trkpt>
      <trkpt lat="42.938107" lon="0.713742">
        <ele>1058.6</ele>
        <time>2012-11-14T14:42:53Z</time>
      </trkpt>
      <trkpt lat="42.937951" lon="0.713585">
        <ele>1054.7</ele>
        <time>2012-11-14T14:43:06Z</time>
      </trkpt>
      <trkpt lat="42.937885" lon="0.713522">
        <ele>1052.3</ele>
        <time>2012-11-14T14:43:13Z</time>
      </trkpt>
      <trkpt lat="42.937788" lon="0.713523">
        <ele>1051.8</ele>
        <time>2012-11-14T14:43:55Z</time>
      </trkpt>
      <trkpt lat="42.937764" lon="0.713331">
        <ele>1047.5</ele>
        <time>2012-11-14T14:44:11Z</time>
      </trkpt>
      <trkpt lat="42.937715" lon="0.713123">
        <ele>1044.1</ele>
        <time>2012-11-14T14:44:33Z</time>
      </trkpt>
      <trkpt lat="42.937652" lon="0.713043">
        <ele>1040.8</ele>
        <time>2012-11-14T14:44:53Z</time>
      </trkpt>
      <trkpt lat="42.937569" lon="0.712822">
        <ele>1035.0</ele>
        <time>2012-11-14T14:45:11Z</time>
      </trkpt>
      <trkpt lat="42.937523" lon="0.712671">
        <ele>1030.2</ele>
        <time>2012-11-14T14:45:28Z</time>
      </trkpt>
      <trkpt lat="42.937474" lon="0.712468">
        <ele>1025.4</ele>
        <time>2012-11-14T14:45:44Z</time>
      </trkpt>
      <trkpt lat="42.937459" lon="0.712304">
        <ele>1022.0</ele>
        <time>2012-11-14T14:45:58Z</time>
      </trkpt>
      <trkpt lat="42.937456" lon="0.712150">
        <ele>1018.7</ele>
        <time>2012-11-14T14:46:12Z</time>
      </trkpt>
      <trkpt lat="42.937358" lon="0.712025">
        <ele>1014.8</ele>
        <time>2012-11-14T14:46:28Z</time>
      </trkpt>
      <trkpt lat="42.937248" lon="0.711869">
        <ele>1011.0</ele>
        <time>2012-11-14T14:46:43Z</time>
      </trkpt>
      <trkpt lat="42.937196" lon="0.711721">
        <ele>1007.6</ele>
        <time>2012-11-14T14:46:58Z</time>
      </trkpt>
      <trkpt lat="42.937155" lon="0.711605">
        <ele>1004.7</ele>
        <time>2012-11-14T14:47:12Z</time>
      </trkpt>
      <trkpt lat="42.937088" lon="0.711438">
        <ele>1000.9</ele>
        <time>2012-11-14T14:47:27Z</time>
      </trkpt>
      <trkpt lat="42.936982" lon="0.711287">
        <ele>998.0</ele>
        <time>2012-11-14T14:47:44Z</time>
      </trkpt>
      <trkpt lat="42.936941" lon="0.711176">
        <ele>994.1</ele>
        <time>2012-11-14T14:48:23Z</time>
      </trkpt>
      <trkpt lat="42.936853" lon="0.711013">
        <ele>989.3</ele>
        <time>2012-11-14T14:48:41Z</time>
      </trkpt>
      <trkpt lat="42.936839" lon="0.710827">
        <ele>984.5</ele>
        <time>2012-11-14T14:48:59Z</time>
      </trkpt>
      <trkpt lat="42.936732" lon="0.710738">
        <ele>981.2</ele>
        <time>2012-11-14T14:49:15Z</time>
      </trkpt>
      <trkpt lat="42.936746" lon="0.710599">
        <ele>978.3</ele>
        <time>2012-11-14T14:49:43Z</time>
      </trkpt>
      <trkpt lat="42.936680" lon="0.710376">
        <ele>974.0</ele>
        <time>2012-11-14T14:50:02Z</time>
      </trkpt>
      <trkpt lat="42.936606" lon="0.710236">
        <ele>970.1</ele>
        <time>2012-11-14T14:50:20Z</time>
      </trkpt>
      <trkpt lat="42.936458" lon="0.710298">
        <ele>966.7</ele>
        <time>2012-11-14T14:51:59Z</time>
      </trkpt>
      <trkpt lat="42.936378" lon="0.710358">
        <ele>964.8</ele>
        <time>2012-11-14T14:52:08Z</time>
      </trkpt>
      <trkpt lat="42.936305" lon="0.710362">
        <ele>962.4</ele>
        <time>2012-11-14T14:52:20Z</time>
      </trkpt>
      <trkpt lat="42.936272" lon="0.710271">
        <ele>960.0</ele>
        <time>2012-11-14T14:53:11Z</time>
      </trkpt>
      <trkpt lat="42.936197" lon="0.710203">
        <ele>959.0</ele>
        <time>2012-11-14T14:53:21Z</time>
      </trkpt>
      <trkpt lat="42.936040" lon="0.710147">
        <ele>957.6</ele>
        <time>2012-11-14T14:53:38Z</time>
      </trkpt>
      <trkpt lat="42.935961" lon="0.710030">
        <ele>957.1</ele>
        <time>2012-11-14T14:53:53Z</time>
      </trkpt>
      <trkpt lat="42.935808" lon="0.710020">
        <ele>955.7</ele>
        <time>2012-11-14T14:54:25Z</time>
      </trkpt>
      <trkpt lat="42.935704" lon="0.709999">
        <ele>954.2</ele>
        <time>2012-11-14T14:54:35Z</time>
      </trkpt>
      <trkpt lat="42.935572" lon="0.709989">
        <ele>951.8</ele>
        <time>2012-11-14T14:54:45Z</time>
      </trkpt>
      <trkpt lat="42.935492" lon="0.709954">
        <ele>949.4</ele>
        <time>2012-11-14T14:55:00Z</time>
      </trkpt>
      <trkpt lat="42.934936" lon="0.710025">
        <ele>933.1</ele>
        <time>2012-11-14T14:59:59Z</time>
      </trkpt>
      <trkpt lat="42.934849" lon="0.709887">
        <ele>932.1</ele>
        <time>2012-11-14T15:00:31Z</time>
      </trkpt>
      <trkpt lat="42.934664" lon="0.709912">
        <ele>931.7</ele>
        <time>2012-11-14T15:00:43Z</time>
        <name>Refuge de Plansous</name>
      </trkpt>
      <trkpt lat="42.934563" lon="0.709708">
        <ele>931.2</ele>
        <time>2012-11-14T15:04:00Z</time>
      </trkpt>
      <trkpt lat="42.934649" lon="0.709596">
        <ele>927.8</ele>
        <time>2012-11-14T15:04:19Z</time>
      </trkpt>
      <trkpt lat="42.934689" lon="0.709373">
        <ele>926.4</ele>
        <time>2012-11-14T15:04:35Z</time>
      </trkpt>
      <trkpt lat="42.934723" lon="0.709134">
        <ele>924.5</ele>
        <time>2012-11-14T15:04:54Z</time>
      </trkpt>
      <trkpt lat="42.934769" lon="0.709016">
        <ele>924.0</ele>
        <time>2012-11-14T15:05:05Z</time>
      </trkpt>
      <trkpt lat="42.934870" lon="0.708848">
        <ele>921.1</ele>
        <time>2012-11-14T15:05:23Z</time>
      </trkpt>
      <trkpt lat="42.934909" lon="0.708633">
        <ele>919.6</ele>
        <time>2012-11-14T15:05:37Z</time>
      </trkpt>
      <trkpt lat="42.934998" lon="0.708473">
        <ele>916.3</ele>
        <time>2012-11-14T15:05:57Z</time>
      </trkpt>
      <trkpt lat="42.935098" lon="0.708296">
        <ele>912.9</ele>
        <time>2012-11-14T15:06:16Z</time>
      </trkpt>
      <trkpt lat="42.935159" lon="0.708127">
        <ele>910.0</ele>
        <time>2012-11-14T15:06:31Z</time>
      </trkpt>
      <trkpt lat="42.935534" lon="0.708180">
        <ele>908.1</ele>
        <time>2012-11-14T15:07:07Z</time>
      </trkpt>
      <trkpt lat="42.935535" lon="0.708091">
        <ele>904.3</ele>
        <time>2012-11-14T15:07:20Z</time>
      </trkpt>
      <trkpt lat="42.935563" lon="0.707997">
        <ele>902.3</ele>
        <time>2012-11-14T15:07:30Z</time>
      </trkpt>
      <trkpt lat="42.935633" lon="0.707870">
        <ele>900.9</ele>
        <time>2012-11-14T15:07:37Z</time>
      </trkpt>
      <trkpt lat="42.935695" lon="0.707748">
        <ele>899.9</ele>
        <time>2012-11-14T15:07:45Z</time>
      </trkpt>
      <trkpt lat="42.935816" lon="0.707638">
        <ele>897.5</ele>
        <time>2012-11-14T15:07:53Z</time>
      </trkpt>
      <trkpt lat="42.935897" lon="0.707491">
        <ele>895.1</ele>
        <time>2012-11-14T15:08:03Z</time>
      </trkpt>
      <trkpt lat="42.935996" lon="0.707396">
        <ele>892.2</ele>
        <time>2012-11-14T15:08:17Z</time>
      </trkpt>
      <trkpt lat="42.936090" lon="0.707301">
        <ele>889.8</ele>
        <time>2012-11-14T15:08:30Z</time>
      </trkpt>
      <trkpt lat="42.936225" lon="0.707209">
        <ele>886.5</ele>
        <time>2012-11-14T15:08:45Z</time>
      </trkpt>
      <trkpt lat="42.936388" lon="0.707087">
        <ele>883.6</ele>
        <time>2012-11-14T15:09:03Z</time>
      </trkpt>
      <trkpt lat="42.936518" lon="0.707043">
        <ele>881.7</ele>
        <time>2012-11-14T15:09:17Z</time>
      </trkpt>
      <trkpt lat="42.936625" lon="0.706987">
        <ele>879.3</ele>
        <time>2012-11-14T15:09:32Z</time>
      </trkpt>
      <trkpt lat="42.936729" lon="0.706937">
        <ele>875.9</ele>
        <time>2012-11-14T15:09:45Z</time>
      </trkpt>
      <trkpt lat="42.936754" lon="0.706823">
        <ele>874.5</ele>
        <time>2012-11-14T15:09:55Z</time>
      </trkpt>
      <trkpt lat="42.936675" lon="0.706770">
        <ele>872.5</ele>
        <time>2012-11-14T15:10:07Z</time>
      </trkpt>
      <trkpt lat="42.936566" lon="0.706692">
        <ele>871.6</ele>
        <time>2012-11-14T15:10:18Z</time>
      </trkpt>
      <trkpt lat="42.936521" lon="0.706558">
        <ele>869.7</ele>
        <time>2012-11-14T15:10:28Z</time>
        <name>GR 86</name>
      </trkpt>
      <trkpt lat="42.936677" lon="0.706494">
        <ele>867.2</ele>
        <time>2012-11-14T15:10:42Z</time>
      </trkpt>
      <trkpt lat="42.936864" lon="0.706439">
        <ele>865.8</ele>
        <time>2012-11-14T15:10:56Z</time>
      </trkpt>
      <trkpt lat="42.936993" lon="0.706359">
        <ele>864.4</ele>
        <time>2012-11-14T15:11:11Z</time>
      </trkpt>
      <trkpt lat="42.937158" lon="0.706461">
        <ele>860.5</ele>
        <time>2012-11-14T15:11:28Z</time>
      </trkpt>
      <trkpt lat="42.937314" lon="0.706490">
        <ele>857.2</ele>
        <time>2012-11-14T15:11:43Z</time>
      </trkpt>
      <trkpt lat="42.937488" lon="0.706594">
        <ele>852.3</ele>
        <time>2012-11-14T15:12:02Z</time>
      </trkpt>
      <trkpt lat="42.937601" lon="0.706632">
        <ele>849.9</ele>
        <time>2012-11-14T15:12:16Z</time>
      </trkpt>
      <trkpt lat="42.937742" lon="0.706630">
        <ele>846.1</ele>
        <time>2012-11-14T15:12:40Z</time>
      </trkpt>
      <trkpt lat="42.937934" lon="0.706757">
        <ele>840.3</ele>
        <time>2012-11-14T15:13:16Z</time>
      </trkpt>
      <trkpt lat="42.938078" lon="0.706838">
        <ele>836.5</ele>
        <time>2012-11-14T15:13:35Z</time>
      </trkpt>
      <trkpt lat="42.938244" lon="0.706938">
        <ele>835.5</ele>
        <time>2012-11-14T15:14:01Z</time>
      </trkpt>
      <trkpt lat="42.938379" lon="0.706994">
        <ele>836.0</ele>
        <time>2012-11-14T15:14:17Z</time>
      </trkpt>
      <trkpt lat="42.938373" lon="0.706998">
        <ele>835.5</ele>
        <time>2012-11-14T15:14:33Z</time>
      </trkpt>
      <trkpt lat="42.938393" lon="0.706897">
        <ele>833.1</ele>
        <time>2012-11-14T15:14:51Z</time>
      </trkpt>
      <trkpt lat="42.938476" lon="0.706753">
        <ele>830.2</ele>
        <time>2012-11-14T15:15:08Z</time>
      </trkpt>
      <trkpt lat="42.938351" lon="0.706687">
        <ele>827.3</ele>
        <time>2012-11-14T15:15:24Z</time>
      </trkpt>
      <trkpt lat="42.938151" lon="0.706389">
        <ele>819.7</ele>
        <time>2012-11-14T15:16:12Z</time>
      </trkpt>
      <trkpt lat="42.938033" lon="0.706210">
        <ele>815.3</ele>
        <time>2012-11-14T15:16:42Z</time>
      </trkpt>
      <trkpt lat="42.937979" lon="0.706055">
        <ele>812.0</ele>
        <time>2012-11-14T15:16:58Z</time>
      </trkpt>
      <trkpt lat="42.937946" lon="0.705853">
        <ele>809.1</ele>
        <time>2012-11-14T15:17:15Z</time>
      </trkpt>
      <trkpt lat="42.937951" lon="0.705519">
        <ele>805.2</ele>
        <time>2012-11-14T15:17:45Z</time>
      </trkpt>
      <trkpt lat="42.937942" lon="0.705375">
        <ele>797.5</ele>
        <time>2012-11-14T15:18:20Z</time>
      </trkpt>
      <trkpt lat="42.937922" lon="0.705051">
        <ele>790.3</ele>
        <time>2012-11-14T15:18:53Z</time>
      </trkpt>
      <trkpt lat="42.937875" lon="0.704811">
        <ele>787.0</ele>
        <time>2012-11-14T15:20:04Z</time>
      </trkpt>
      <trkpt lat="42.937786" lon="0.704737">
        <ele>784.1</ele>
        <time>2012-11-14T15:20:25Z</time>
      </trkpt>
      <trkpt lat="42.937683" lon="0.704633">
        <ele>783.6</ele>
        <time>2012-11-14T15:20:44Z</time>
      </trkpt>
      <trkpt lat="42.937581" lon="0.704502">
        <ele>779.8</ele>
        <time>2012-11-14T15:21:15Z</time>
      </trkpt>
      <trkpt lat="42.937507" lon="0.704444">
        <ele>776.9</ele>
        <time>2012-11-14T15:21:38Z</time>
      </trkpt>
      <trkpt lat="42.937335" lon="0.704231">
        <ele>773.0</ele>
        <time>2012-11-14T15:22:10Z</time>
      </trkpt>
      <trkpt lat="42.937119" lon="0.704057">
        <ele>770.2</ele>
        <time>2012-11-14T15:23:02Z</time>
      </trkpt>
      <trkpt lat="42.937055" lon="0.703899">
        <ele>766.3</ele>
        <time>2012-11-14T15:23:27Z</time>
      </trkpt>
      <trkpt lat="42.936942" lon="0.703617">
        <ele>764.4</ele>
        <time>2012-11-14T15:24:21Z</time>
      </trkpt>
      <trkpt lat="42.936822" lon="0.703587">
        <ele>763.4</ele>
        <time>2012-11-14T15:24:42Z</time>
      </trkpt>
      <trkpt lat="42.936712" lon="0.703538">
        <ele>761.0</ele>
        <time>2012-11-14T15:24:59Z</time>
      </trkpt>
      <trkpt lat="42.936557" lon="0.703404">
        <ele>757.2</ele>
        <time>2012-11-14T15:25:32Z</time>
      </trkpt>
      <trkpt lat="42.936498" lon="0.703289">
        <ele>755.2</ele>
        <time>2012-11-14T15:25:49Z</time>
      </trkpt>
      <trkpt lat="42.936438" lon="0.703216">
        <ele>755.7</ele>
        <time>2012-11-14T15:26:59Z</time>
      </trkpt>
      <trkpt lat="42.936296" lon="0.702981">
        <ele>752.8</ele>
        <time>2012-11-14T15:27:25Z</time>
      </trkpt>
      <trkpt lat="42.936179" lon="0.702813">
        <ele>750.5</ele>
        <time>2012-11-14T15:27:45Z</time>
      </trkpt>
      <trkpt lat="42.936072" lon="0.702718">
        <ele>750.5</ele>
        <time>2012-11-14T15:28:05Z</time>
      </trkpt>
      <trkpt lat="42.935973" lon="0.702434">
        <ele>750.5</ele>
        <time>2012-11-14T15:28:35Z</time>
      </trkpt>
      <trkpt lat="42.935929" lon="0.702181">
        <ele>751.9</ele>
        <time>2012-11-14T15:28:57Z</time>
      </trkpt>
      <trkpt lat="42.935936" lon="0.702011">
        <ele>753.3</ele>
        <time>2012-11-14T15:29:11Z</time>
      </trkpt>
      <trkpt lat="42.935947" lon="0.701781">
        <ele>755.2</ele>
        <time>2012-11-14T15:29:31Z</time>
      </trkpt>
      <trkpt lat="42.935956" lon="0.701569">
        <ele>753.8</ele>
        <time>2012-11-14T15:30:27Z</time>
      </trkpt>
      <trkpt lat="42.935872" lon="0.701446">
        <ele>753.8</ele>
        <time>2012-11-14T15:30:38Z</time>
      </trkpt>
      <trkpt lat="42.935797" lon="0.701224">
        <ele>752.8</ele>
        <time>2012-11-14T15:30:57Z</time>
      </trkpt>
      <trkpt lat="42.935679" lon="0.701135">
        <ele>752.4</ele>
        <time>2012-11-14T15:31:08Z</time>
      </trkpt>
      <trkpt lat="42.935522" lon="0.701111">
        <ele>752.4</ele>
        <time>2012-11-14T15:31:20Z</time>
      </trkpt>
      <trkpt lat="42.935410" lon="0.701091">
        <ele>753.3</ele>
        <time>2012-11-14T15:31:33Z</time>
      </trkpt>
      <trkpt lat="42.935323" lon="0.700973">
        <ele>754.3</ele>
        <time>2012-11-14T15:31:48Z</time>
      </trkpt>
      <trkpt lat="42.935095" lon="0.701326">
        <ele>754.3</ele>
        <time>2012-11-14T15:32:07Z</time>
      </trkpt>
      <trkpt lat="42.934968" lon="0.701041">
        <ele>755.2</ele>
        <time>2012-11-14T15:32:22Z</time>
      </trkpt>
      <trkpt lat="42.934888" lon="0.700862">
        <ele>756.2</ele>
        <time>2012-11-14T15:32:33Z</time>
      </trkpt>
      <trkpt lat="42.934781" lon="0.700770">
        <ele>757.2</ele>
        <time>2012-11-14T15:32:45Z</time>
      </trkpt>
      <trkpt lat="42.934704" lon="0.700773">
        <ele>759.1</ele>
        <time>2012-11-14T15:32:57Z</time>
      </trkpt>
      <trkpt lat="42.934636" lon="0.700811">
        <ele>761.0</ele>
        <time>2012-11-14T15:33:10Z</time>
      </trkpt>
      <trkpt lat="42.934612" lon="0.700778">
        <ele>763.9</ele>
        <time>2012-11-14T15:33:30Z</time>
      </trkpt>
      <trkpt lat="42.934518" lon="0.700617">
        <ele>765.8</ele>
        <time>2012-11-14T15:33:48Z</time>
      </trkpt>
      <trkpt lat="42.934446" lon="0.700544">
        <ele>765.3</ele>
        <time>2012-11-14T15:34:00Z</time>
      </trkpt>
      <trkpt lat="42.934381" lon="0.700450">
        <ele>765.8</ele>
        <time>2012-11-14T15:34:13Z</time>
      </trkpt>
      <trkpt lat="42.934385" lon="0.700105">
        <ele>766.8</ele>
        <time>2012-11-14T15:34:27Z</time>
      </trkpt>
      <trkpt lat="42.934419" lon="0.700045">
        <ele>766.8</ele>
        <time>2012-11-14T15:35:20Z</time>
      </trkpt>
      <trkpt lat="42.934410" lon="0.699879">
        <ele>766.3</ele>
        <time>2012-11-14T15:35:48Z</time>
      </trkpt>
      <trkpt lat="42.934469" lon="0.699767">
        <ele>762.9</ele>
        <time>2012-11-14T15:35:59Z</time>
      </trkpt>
      <trkpt lat="42.934470" lon="0.699617">
        <ele>760.5</ele>
        <time>2012-11-14T15:36:10Z</time>
      </trkpt>
      <trkpt lat="42.934438" lon="0.699471">
        <ele>759.1</ele>
        <time>2012-11-14T15:36:22Z</time>
      </trkpt>
      <trkpt lat="42.934418" lon="0.699277">
        <ele>759.1</ele>
        <time>2012-11-14T15:36:33Z</time>
      </trkpt>
      <trkpt lat="42.934381" lon="0.699065">
        <ele>758.1</ele>
        <time>2012-11-14T15:36:45Z</time>
      </trkpt>
      <trkpt lat="42.934378" lon="0.698884">
        <ele>756.7</ele>
        <time>2012-11-14T15:36:58Z</time>
      </trkpt>
      <trkpt lat="42.934357" lon="0.698745">
        <ele>755.7</ele>
        <time>2012-11-14T15:37:11Z</time>
      </trkpt>
      <trkpt lat="42.934310" lon="0.698592">
        <ele>756.2</ele>
        <time>2012-11-14T15:37:24Z</time>
      </trkpt>
      <trkpt lat="42.934238" lon="0.698503">
        <ele>753.3</ele>
        <time>2012-11-14T15:37:39Z</time>
      </trkpt>
      <trkpt lat="42.934173" lon="0.698392">
        <ele>751.4</ele>
        <time>2012-11-14T15:37:56Z</time>
      </trkpt>
      <trkpt lat="42.934086" lon="0.698319">
        <ele>749.5</ele>
        <time>2012-11-14T15:38:15Z</time>
      </trkpt>
      <trkpt lat="42.933977" lon="0.698202">
        <ele>748.0</ele>
        <time>2012-11-14T15:38:36Z</time>
      </trkpt>
      <trkpt lat="42.933863" lon="0.698015">
        <ele>746.6</ele>
        <time>2012-11-14T15:38:49Z</time>
      </trkpt>
      <trkpt lat="42.933801" lon="0.697867">
        <ele>745.2</ele>
        <time>2012-11-14T15:39:03Z</time>
      </trkpt>
      <trkpt lat="42.933723" lon="0.697727">
        <ele>744.2</ele>
        <time>2012-11-14T15:39:18Z</time>
      </trkpt>
      <trkpt lat="42.933672" lon="0.697627">
        <ele>743.2</ele>
        <time>2012-11-14T15:39:30Z</time>
      </trkpt>
      <trkpt lat="42.933624" lon="0.697558">
        <ele>742.3</ele>
        <time>2012-11-14T15:39:57Z</time>
      </trkpt>
      <trkpt lat="42.933506" lon="0.697463">
        <ele>741.3</ele>
        <time>2012-11-14T15:40:07Z</time>
      </trkpt>
      <trkpt lat="42.933409" lon="0.697377">
        <ele>740.8</ele>
        <time>2012-11-14T15:40:20Z</time>
      </trkpt>
      <trkpt lat="42.933309" lon="0.697292">
        <ele>740.3</ele>
        <time>2012-11-14T15:40:35Z</time>
      </trkpt>
      <trkpt lat="42.933219" lon="0.697172">
        <ele>740.3</ele>
        <time>2012-11-14T15:40:48Z</time>
      </trkpt>
      <trkpt lat="42.933141" lon="0.697084">
        <ele>740.3</ele>
        <time>2012-11-14T15:41:03Z</time>
      </trkpt>
      <trkpt lat="42.932987" lon="0.696977">
        <ele>739.4</ele>
        <time>2012-11-14T15:41:21Z</time>
      </trkpt>
      <trkpt lat="42.932874" lon="0.696966">
        <ele>738.9</ele>
        <time>2012-11-14T15:41:53Z</time>
      </trkpt>
    </trkseg>
  </trk>
</gpx>

